<?xml version="1.0" encoding="UTF-8"?>
<gpx version="1.1" creator="https://www.youtrack.es" xsi:schemaLocation="http://www.topografix.com/GPX/1/1 http://www.topografix.com/GPX/1/1/gpx.xsd http://www.garmin.com/xmlschemas/GpxExtensions/v3 http://www.garmin.com/xmlschemas/GpxExtensionsv3.xsd http://www.garmin.com/xmlschemas/TrackPointExtension/v1 http://www.garmin.com/xmlschemas/TrackPointExtensionv1.xsd" xmlns:gpxtpx="http://www.garmin.com/xmlschemas/TrackPointExtension/v1" xmlns:gpxx="http://www.garmin.com/xmlschemas/GpxExtensions/v3" xmlns:xsi="http://www.w3.org/2001/XMLSchema-instance">
  <metadata>
    <link href="https://www.youtrack.es">
      <text>YouTrack.es</text>
    </link>
    <time>2026-05-08T01:08:00Z</time>
  </metadata>
  <trk>
    <src>https://www.youtrack.es</src>
    <link href="https://www.youtrack.es/ruta/18942-ruta-unida">
      <text>YouTrack.es</text>
    </link>
    <trkseg>
      <trkpt lat="42.676480" lon="-1.806440">
        <ele>354.022</ele>
        <time>2021-01-20T14:02:46Z</time>
      </trkpt>
      <trkpt lat="42.676290" lon="-1.806600">
        <ele>357.062</ele>
        <time>2021-01-20T14:03:06Z</time>
      </trkpt>
      <trkpt lat="42.675640" lon="-1.807340">
        <ele>355.008</ele>
        <time>2021-01-20T14:03:26Z</time>
      </trkpt>
      <trkpt lat="42.673840" lon="-1.810200">
        <ele>353.007</ele>
        <time>2021-01-20T14:03:46Z</time>
      </trkpt>
      <trkpt lat="42.673060" lon="-1.810500">
        <ele>348.024</ele>
        <time>2021-01-20T14:04:06Z</time>
      </trkpt>
      <trkpt lat="42.672790" lon="-1.810980">
        <ele>350.011</ele>
        <time>2021-01-20T14:04:26Z</time>
      </trkpt>
      <trkpt lat="42.672410" lon="-1.812830">
        <ele>353.011</ele>
        <time>2021-01-20T14:04:46Z</time>
      </trkpt>
      <trkpt lat="42.671950" lon="-1.817490">
        <ele>342.022</ele>
        <time>2021-01-20T14:05:06Z</time>
      </trkpt>
      <trkpt lat="42.671860" lon="-1.817720">
        <ele>337.068</ele>
        <time>2021-01-20T14:05:26Z</time>
      </trkpt>
      <trkpt lat="42.670610" lon="-1.817360">
        <ele>326.093</ele>
        <time>2021-01-20T14:05:46Z</time>
      </trkpt>
      <trkpt lat="42.670430" lon="-1.817510">
        <ele>323.047</ele>
        <time>2021-01-20T14:06:06Z</time>
      </trkpt>
      <trkpt lat="42.669940" lon="-1.818800">
        <ele>329.073</ele>
        <time>2021-01-20T14:06:26Z</time>
      </trkpt>
      <trkpt lat="42.670080" lon="-1.819150">
        <ele>334.085</ele>
        <time>2021-01-20T14:06:46Z</time>
      </trkpt>
      <trkpt lat="42.670550" lon="-1.819250">
        <ele>328.013</ele>
        <time>2021-01-20T14:07:06Z</time>
      </trkpt>
      <trkpt lat="42.669780" lon="-1.819220">
        <ele>337.007</ele>
        <time>2021-01-20T14:07:26Z</time>
      </trkpt>
      <trkpt lat="42.668790" lon="-1.822020">
        <ele>351.039</ele>
        <time>2021-01-20T14:07:46Z</time>
      </trkpt>
      <trkpt lat="42.668100" lon="-1.824850">
        <ele>345.036</ele>
        <time>2021-01-20T14:08:06Z</time>
      </trkpt>
      <trkpt lat="42.667970" lon="-1.827200">
        <ele>349.076</ele>
        <time>2021-01-20T14:08:26Z</time>
      </trkpt>
      <trkpt lat="42.668590" lon="-1.827930">
        <ele>356.027</ele>
        <time>2021-01-20T14:08:46Z</time>
      </trkpt>
      <trkpt lat="42.669630" lon="-1.828400">
        <ele>357.053</ele>
        <time>2021-01-20T14:09:06Z</time>
      </trkpt>
      <trkpt lat="42.670040" lon="-1.828810">
        <ele>360.028</ele>
        <time>2021-01-20T14:09:26Z</time>
      </trkpt>
      <trkpt lat="42.670330" lon="-1.829250">
        <ele>358.092</ele>
        <time>2021-01-20T14:09:46Z</time>
      </trkpt>
      <trkpt lat="42.670420" lon="-1.829850">
        <ele>362.078</ele>
        <time>2021-01-20T14:10:06Z</time>
      </trkpt>
      <trkpt lat="42.670170" lon="-1.830150">
        <ele>367.033</ele>
        <time>2021-01-20T14:10:26Z</time>
      </trkpt>
      <trkpt lat="42.669050" lon="-1.830750">
        <ele>381.026</ele>
        <time>2021-01-20T14:10:46Z</time>
      </trkpt>
      <trkpt lat="42.668220" lon="-1.831920">
        <ele>394.007</ele>
        <time>2021-01-20T14:11:06Z</time>
      </trkpt>
      <trkpt lat="42.667280" lon="-1.834050">
        <ele>395.079</ele>
        <time>2021-01-20T14:11:26Z</time>
      </trkpt>
      <trkpt lat="42.666860" lon="-1.836200">
        <ele>396.046</ele>
        <time>2021-01-20T14:11:46Z</time>
      </trkpt>
      <trkpt lat="42.667070" lon="-1.837170">
        <ele>395.046</ele>
        <time>2021-01-20T14:12:06Z</time>
      </trkpt>
      <trkpt lat="42.668650" lon="-1.839650">
        <ele>417.067</ele>
        <time>2021-01-20T14:12:26Z</time>
      </trkpt>
      <trkpt lat="42.668730" lon="-1.840080">
        <ele>417.093</ele>
        <time>2021-01-20T14:12:46Z</time>
      </trkpt>
      <trkpt lat="42.668580" lon="-1.840550">
        <ele>422.078</ele>
        <time>2021-01-20T14:13:06Z</time>
      </trkpt>
      <trkpt lat="42.667710" lon="-1.841350">
        <ele>426.012</ele>
        <time>2021-01-20T14:13:26Z</time>
      </trkpt>
      <trkpt lat="42.667520" lon="-1.842890">
        <ele>428.094</ele>
        <time>2021-01-20T14:13:46Z</time>
      </trkpt>
      <trkpt lat="42.667860" lon="-1.844390">
        <ele>431.057</ele>
        <time>2021-01-20T14:14:06Z</time>
      </trkpt>
      <trkpt lat="42.668990" lon="-1.845740">
        <ele>452.022</ele>
        <time>2021-01-20T14:14:26Z</time>
      </trkpt>
      <trkpt lat="42.669080" lon="-1.846220">
        <ele>461.007</ele>
        <time>2021-01-20T14:14:46Z</time>
      </trkpt>
      <trkpt lat="42.668900" lon="-1.846660">
        <ele>462.091</ele>
        <time>2021-01-20T14:15:06Z</time>
      </trkpt>
      <trkpt lat="42.667870" lon="-1.847560">
        <ele>456.068</ele>
        <time>2021-01-20T14:15:26Z</time>
      </trkpt>
      <trkpt lat="42.667640" lon="-1.848350">
        <ele>462.038</ele>
        <time>2021-01-20T14:15:46Z</time>
      </trkpt>
      <trkpt lat="42.668320" lon="-1.850720">
        <ele>496.029</ele>
        <time>2021-01-20T14:16:06Z</time>
      </trkpt>
      <trkpt lat="42.668030" lon="-1.853090">
        <ele>484.085</ele>
        <time>2021-01-20T14:16:26Z</time>
      </trkpt>
      <trkpt lat="42.668140" lon="-1.854030">
        <ele>478.050</ele>
        <time>2021-01-20T14:16:46Z</time>
      </trkpt>
      <trkpt lat="42.668740" lon="-1.855550">
        <ele>481.024</ele>
        <time>2021-01-20T14:17:06Z</time>
      </trkpt>
      <trkpt lat="42.668560" lon="-1.857400">
        <ele>471.044</ele>
        <time>2021-01-20T14:17:26Z</time>
      </trkpt>
      <trkpt lat="42.668720" lon="-1.858120">
        <ele>471.005</ele>
        <time>2021-01-20T14:17:46Z</time>
      </trkpt>
      <trkpt lat="42.669230" lon="-1.858710">
        <ele>473.015</ele>
        <time>2021-01-20T14:18:06Z</time>
      </trkpt>
      <trkpt lat="42.669310" lon="-1.859130">
        <ele>471.007</ele>
        <time>2021-01-20T14:18:26Z</time>
      </trkpt>
      <trkpt lat="42.669150" lon="-1.861920">
        <ele>456.036</ele>
        <time>2021-01-20T14:18:46Z</time>
      </trkpt>
      <trkpt lat="42.668960" lon="-1.863870">
        <ele>452.013</ele>
        <time>2021-01-20T14:19:06Z</time>
      </trkpt>
      <trkpt lat="42.668780" lon="-1.864300">
        <ele>452.073</ele>
        <time>2021-01-20T14:19:26Z</time>
      </trkpt>
      <trkpt lat="42.669030" lon="-1.867310">
        <ele>455.084</ele>
        <time>2021-01-20T14:19:46Z</time>
      </trkpt>
      <trkpt lat="42.669450" lon="-1.869010">
        <ele>448.060</ele>
        <time>2021-01-20T14:20:06Z</time>
      </trkpt>
      <trkpt lat="42.669360" lon="-1.869890">
        <ele>444.015</ele>
        <time>2021-01-20T14:20:26Z</time>
      </trkpt>
      <trkpt lat="42.669730" lon="-1.871260">
        <ele>445.029</ele>
        <time>2021-01-20T14:20:46Z</time>
      </trkpt>
      <trkpt lat="42.669990" lon="-1.871650">
        <ele>448.034</ele>
        <time>2021-01-20T14:21:06Z</time>
      </trkpt>
      <trkpt lat="42.670320" lon="-1.873160">
        <ele>451.055</ele>
        <time>2021-01-20T14:21:26Z</time>
      </trkpt>
      <trkpt lat="42.670540" lon="-1.873460">
        <ele>453.010</ele>
        <time>2021-01-20T14:21:46Z</time>
      </trkpt>
      <trkpt lat="42.671270" lon="-1.876800">
        <ele>446.007</ele>
        <time>2021-01-20T14:22:06Z</time>
      </trkpt>
      <trkpt lat="42.671000" lon="-1.877930">
        <ele>448.075</ele>
        <time>2021-01-20T14:22:26Z</time>
      </trkpt>
      <trkpt lat="42.671200" lon="-1.879540">
        <ele>436.022</ele>
        <time>2021-01-20T14:22:46Z</time>
      </trkpt>
      <trkpt lat="42.671960" lon="-1.880990">
        <ele>439.062</ele>
        <time>2021-01-20T14:23:06Z</time>
      </trkpt>
      <trkpt lat="42.674170" lon="-1.883710">
        <ele>451.083</ele>
        <time>2021-01-20T14:23:26Z</time>
      </trkpt>
      <trkpt lat="42.674790" lon="-1.885350">
        <ele>460.049</ele>
        <time>2021-01-20T14:23:46Z</time>
      </trkpt>
      <trkpt lat="42.675730" lon="-1.889260">
        <ele>467.044</ele>
        <time>2021-01-20T14:24:06Z</time>
      </trkpt>
      <trkpt lat="42.675950" lon="-1.889680">
        <ele>470.028</ele>
        <time>2021-01-20T14:24:26Z</time>
      </trkpt>
      <trkpt lat="42.676110" lon="-1.890430">
        <ele>482.035</ele>
        <time>2021-01-20T14:24:46Z</time>
      </trkpt>
      <trkpt lat="42.675960" lon="-1.891180">
        <ele>488.086</ele>
        <time>2021-01-20T14:25:06Z</time>
      </trkpt>
      <trkpt lat="42.674140" lon="-1.892270">
        <ele>461.014</ele>
        <time>2021-01-20T14:25:26Z</time>
      </trkpt>
      <trkpt lat="42.675140" lon="-1.892890">
        <ele>476.007</ele>
        <time>2021-01-20T14:25:46Z</time>
      </trkpt>
      <trkpt lat="42.675300" lon="-1.892800">
        <ele>476.025</ele>
        <time>2021-01-20T14:26:06Z</time>
      </trkpt>
      <trkpt lat="42.675310" lon="-1.893160">
        <ele>472.032</ele>
        <time>2021-01-20T14:26:26Z</time>
      </trkpt>
      <trkpt lat="42.675990" lon="-1.894090">
        <ele>454.062</ele>
        <time>2021-01-20T14:26:46Z</time>
      </trkpt>
      <trkpt lat="42.677460" lon="-1.895180">
        <ele>448.023</ele>
        <time>2021-01-20T14:27:06Z</time>
      </trkpt>
      <trkpt lat="42.677680" lon="-1.895660">
        <ele>452.059</ele>
        <time>2021-01-20T14:27:26Z</time>
      </trkpt>
      <trkpt lat="42.677230" lon="-1.895930">
        <ele>448.074</ele>
        <time>2021-01-20T14:27:46Z</time>
      </trkpt>
      <trkpt lat="42.677180" lon="-1.896340">
        <ele>453.038</ele>
        <time>2021-01-20T14:28:06Z</time>
      </trkpt>
      <trkpt lat="42.677350" lon="-1.896610">
        <ele>455.083</ele>
        <time>2021-01-20T14:28:26Z</time>
      </trkpt>
      <trkpt lat="42.677970" lon="-1.896850">
        <ele>456.025</ele>
        <time>2021-01-20T14:28:46Z</time>
      </trkpt>
      <trkpt lat="42.678190" lon="-1.897190">
        <ele>455.017</ele>
        <time>2021-01-20T14:29:06Z</time>
      </trkpt>
      <trkpt lat="42.677890" lon="-1.897940">
        <ele>450.007</ele>
        <time>2021-01-20T14:29:26Z</time>
      </trkpt>
      <trkpt lat="42.677790" lon="-1.898830">
        <ele>448.010</ele>
        <time>2021-01-20T14:29:46Z</time>
      </trkpt>
      <trkpt lat="42.677810" lon="-1.900740">
        <ele>448.077</ele>
        <time>2021-01-20T14:30:06Z</time>
      </trkpt>
      <trkpt lat="42.678190" lon="-1.903990">
        <ele>437.057</ele>
        <time>2021-01-20T14:30:26Z</time>
      </trkpt>
      <trkpt lat="42.679240" lon="-1.906530">
        <ele>422.058</ele>
        <time>2021-01-20T14:30:46Z</time>
      </trkpt>
      <trkpt lat="42.679070" lon="-1.908560">
        <ele>430.074</ele>
        <time>2021-01-20T14:31:06Z</time>
      </trkpt>
      <trkpt lat="42.679230" lon="-1.910350">
        <ele>434.029</ele>
        <time>2021-01-20T14:31:26Z</time>
      </trkpt>
      <trkpt lat="42.679150" lon="-1.912670">
        <ele>430.053</ele>
        <time>2021-01-20T14:31:46Z</time>
      </trkpt>
      <trkpt lat="42.679700" lon="-1.914410">
        <ele>430.091</ele>
        <time>2021-01-20T14:32:06Z</time>
      </trkpt>
      <trkpt lat="42.679670" lon="-1.914920">
        <ele>428.081</ele>
        <time>2021-01-20T14:32:26Z</time>
      </trkpt>
      <trkpt lat="42.679120" lon="-1.912370">
        <ele>431.019</ele>
        <time>2021-01-20T14:32:46Z</time>
      </trkpt>
      <trkpt lat="42.679870" lon="-1.924750">
        <ele>385.007</ele>
        <time>2021-01-20T14:33:06Z</time>
      </trkpt>
      <trkpt lat="42.680320" lon="-1.926460">
        <ele>383.021</ele>
        <time>2021-01-20T14:33:26Z</time>
      </trkpt>
      <trkpt lat="42.679970" lon="-1.927130">
        <ele>383.038</ele>
        <time>2021-01-20T14:33:46Z</time>
      </trkpt>
      <trkpt lat="42.680000" lon="-1.928180">
        <ele>383.088</ele>
        <time>2021-01-20T14:34:06Z</time>
      </trkpt>
      <trkpt lat="42.679320" lon="-1.928850">
        <ele>382.089</ele>
        <time>2021-01-20T14:34:26Z</time>
      </trkpt>
      <trkpt lat="42.678890" lon="-1.930500">
        <ele>386.095</ele>
        <time>2021-01-20T14:34:46Z</time>
      </trkpt>
      <trkpt lat="42.679150" lon="-1.931510">
        <ele>383.070</ele>
        <time>2021-01-20T14:35:06Z</time>
      </trkpt>
      <trkpt lat="42.680610" lon="-1.933200">
        <ele>384.034</ele>
        <time>2021-01-20T14:35:26Z</time>
      </trkpt>
      <trkpt lat="42.680880" lon="-1.935320">
        <ele>387.064</ele>
        <time>2021-01-20T14:35:46Z</time>
      </trkpt>
      <trkpt lat="42.681290" lon="-1.936100">
        <ele>382.006</ele>
        <time>2021-01-20T14:36:06Z</time>
      </trkpt>
      <trkpt lat="42.680900" lon="-1.937210">
        <ele>385.016</ele>
        <time>2021-01-20T14:36:26Z</time>
      </trkpt>
      <trkpt lat="42.679560" lon="-1.937760">
        <ele>397.007</ele>
        <time>2021-01-20T14:36:46Z</time>
      </trkpt>
      <trkpt lat="42.678100" lon="-1.938830">
        <ele>411.088</ele>
        <time>2021-01-20T14:37:06Z</time>
      </trkpt>
      <trkpt lat="42.677910" lon="-1.938660">
        <ele>407.095</ele>
        <time>2021-01-20T14:37:26Z</time>
      </trkpt>
      <trkpt lat="42.675550" lon="-1.940830">
        <ele>420.035</ele>
        <time>2021-01-20T14:37:46Z</time>
      </trkpt>
      <trkpt lat="42.674920" lon="-1.942380">
        <ele>441.086</ele>
        <time>2021-01-20T14:38:06Z</time>
      </trkpt>
      <trkpt lat="42.673760" lon="-1.943500">
        <ele>453.062</ele>
        <time>2021-01-20T14:38:26Z</time>
      </trkpt>
      <trkpt lat="42.673090" lon="-1.944590">
        <ele>455.077</ele>
        <time>2021-01-20T14:38:46Z</time>
      </trkpt>
      <trkpt lat="42.672580" lon="-1.945130">
        <ele>459.031</ele>
        <time>2021-01-20T14:39:06Z</time>
      </trkpt>
      <trkpt lat="42.671240" lon="-1.947450">
        <ele>451.081</ele>
        <time>2021-01-20T14:39:26Z</time>
      </trkpt>
      <trkpt lat="42.671000" lon="-1.948260">
        <ele>456.061</ele>
        <time>2021-01-20T14:39:46Z</time>
      </trkpt>
      <trkpt lat="42.669330" lon="-1.951310">
        <ele>475.017</ele>
        <time>2021-01-20T14:40:06Z</time>
      </trkpt>
      <trkpt lat="42.667820" lon="-1.955670">
        <ele>472.007</ele>
        <time>2021-01-20T14:40:26Z</time>
      </trkpt>
      <trkpt lat="42.666620" lon="-1.960790">
        <ele>492.080</ele>
        <time>2021-01-20T14:40:46Z</time>
      </trkpt>
      <trkpt lat="42.666400" lon="-1.961010">
        <ele>491.057</ele>
        <time>2021-01-20T14:41:06Z</time>
      </trkpt>
      <trkpt lat="42.666100" lon="-1.960800">
        <ele>492.047</ele>
        <time>2021-01-20T14:41:26Z</time>
      </trkpt>
      <trkpt lat="42.665740" lon="-1.960930">
        <ele>491.028</ele>
        <time>2021-01-20T14:41:46Z</time>
      </trkpt>
      <trkpt lat="42.664670" lon="-1.963220">
        <ele>482.034</ele>
        <time>2021-01-20T14:42:06Z</time>
      </trkpt>
      <trkpt lat="42.664410" lon="-1.968940">
        <ele>460.049</ele>
        <time>2021-01-20T14:42:26Z</time>
      </trkpt>
      <trkpt lat="42.663960" lon="-1.970650">
        <ele>455.083</ele>
        <time>2021-01-20T14:42:46Z</time>
      </trkpt>
      <trkpt lat="42.663750" lon="-1.975350">
        <ele>446.092</ele>
        <time>2021-01-20T14:43:06Z</time>
      </trkpt>
      <trkpt lat="42.663490" lon="-1.975690">
        <ele>443.073</ele>
        <time>2021-01-20T14:43:26Z</time>
      </trkpt>
      <trkpt lat="42.663240" lon="-1.975670">
        <ele>442.020</ele>
        <time>2021-01-20T14:43:46Z</time>
      </trkpt>
      <trkpt lat="42.662990" lon="-1.976470">
        <ele>439.007</ele>
        <time>2021-01-20T14:44:06Z</time>
      </trkpt>
      <trkpt lat="42.663700" lon="-1.979460">
        <ele>434.091</ele>
        <time>2021-01-20T14:44:26Z</time>
      </trkpt>
      <trkpt lat="42.663490" lon="-1.981360">
        <ele>431.028</ele>
        <time>2021-01-20T14:44:46Z</time>
      </trkpt>
      <trkpt lat="42.663610" lon="-1.986560">
        <ele>427.088</ele>
        <time>2021-01-20T14:45:06Z</time>
      </trkpt>
      <trkpt lat="42.661980" lon="-1.989330">
        <ele>422.019</ele>
        <time>2021-01-20T14:45:26Z</time>
      </trkpt>
      <trkpt lat="42.661290" lon="-1.989910">
        <ele>425.055</ele>
        <time>2021-01-20T14:45:46Z</time>
      </trkpt>
      <trkpt lat="42.661340" lon="-1.990510">
        <ele>423.010</ele>
        <time>2021-01-20T14:46:06Z</time>
      </trkpt>
      <trkpt lat="42.659550" lon="-1.991530">
        <ele>420.024</ele>
        <time>2021-01-20T14:46:26Z</time>
      </trkpt>
      <trkpt lat="42.659230" lon="-1.992150">
        <ele>425.055</ele>
        <time>2021-01-20T14:46:46Z</time>
      </trkpt>
      <trkpt lat="42.658680" lon="-1.992500">
        <ele>428.007</ele>
        <time>2021-01-20T14:47:06Z</time>
      </trkpt>
      <trkpt lat="42.658190" lon="-1.994140">
        <ele>435.017</ele>
        <time>2021-01-20T14:47:26Z</time>
      </trkpt>
      <trkpt lat="42.658440" lon="-1.994650">
        <ele>440.007</ele>
        <time>2021-01-20T14:47:46Z</time>
      </trkpt>
      <trkpt lat="42.659370" lon="-1.995560">
        <ele>438.097</ele>
        <time>2021-01-20T14:48:06Z</time>
      </trkpt>
      <trkpt lat="42.659680" lon="-1.996150">
        <ele>434.094</ele>
        <time>2021-01-20T14:48:26Z</time>
      </trkpt>
      <trkpt lat="42.660690" lon="-1.999730">
        <ele>436.054</ele>
        <time>2021-01-20T14:48:46Z</time>
      </trkpt>
      <trkpt lat="42.661100" lon="-2.002290">
        <ele>442.025</ele>
        <time>2021-01-20T14:49:06Z</time>
      </trkpt>
      <trkpt lat="42.661430" lon="-2.002880">
        <ele>444.051</ele>
        <time>2021-01-20T14:49:26Z</time>
      </trkpt>
      <trkpt lat="42.661250" lon="-2.004750">
        <ele>445.016</ele>
        <time>2021-01-20T14:49:46Z</time>
      </trkpt>
      <trkpt lat="42.661240" lon="-2.007430">
        <ele>410.060</ele>
        <time>2021-01-20T14:50:06Z</time>
      </trkpt>
      <trkpt lat="42.661010" lon="-2.007760">
        <ele>407.046</ele>
        <time>2021-01-20T14:50:26Z</time>
      </trkpt>
      <trkpt lat="42.660040" lon="-2.008090">
        <ele>417.088</ele>
        <time>2021-01-20T14:50:46Z</time>
      </trkpt>
      <trkpt lat="42.659880" lon="-2.008320">
        <ele>413.016</ele>
        <time>2021-01-20T14:51:06Z</time>
      </trkpt>
      <trkpt lat="42.660460" lon="-2.008820">
        <ele>404.007</ele>
        <time>2021-01-20T14:51:26Z</time>
      </trkpt>
      <trkpt lat="42.660720" lon="-2.009350">
        <ele>404.026</ele>
        <time>2021-01-20T14:51:46Z</time>
      </trkpt>
      <trkpt lat="42.660900" lon="-2.010400">
        <ele>407.043</ele>
        <time>2021-01-20T14:52:06Z</time>
      </trkpt>
      <trkpt lat="42.661270" lon="-2.011190">
        <ele>415.033</ele>
        <time>2021-01-20T14:52:26Z</time>
      </trkpt>
      <trkpt lat="42.662570" lon="-2.012290">
        <ele>424.084</ele>
        <time>2021-01-20T14:52:46Z</time>
      </trkpt>
      <trkpt lat="42.663170" lon="-2.013110">
        <ele>426.020</ele>
        <time>2021-01-20T14:53:06Z</time>
      </trkpt>
      <trkpt lat="42.663360" lon="-2.013780">
        <ele>421.055</ele>
        <time>2021-01-20T14:53:26Z</time>
      </trkpt>
      <trkpt lat="42.663330" lon="-2.015090">
        <ele>417.019</ele>
        <time>2021-01-20T14:53:46Z</time>
      </trkpt>
      <trkpt lat="42.662930" lon="-2.017170">
        <ele>418.096</ele>
        <time>2021-01-20T14:54:06Z</time>
      </trkpt>
      <trkpt lat="42.662570" lon="-2.018160">
        <ele>421.031</ele>
        <time>2021-01-20T14:54:26Z</time>
      </trkpt>
      <trkpt lat="42.662560" lon="-2.018840">
        <ele>425.024</ele>
        <time>2021-01-20T14:54:46Z</time>
      </trkpt>
      <trkpt lat="42.663710" lon="-2.021330">
        <ele>423.007</ele>
        <time>2021-01-20T14:55:06Z</time>
      </trkpt>
      <trkpt lat="42.664840" lon="-2.021950">
        <ele>418.011</ele>
        <time>2021-01-20T14:55:26Z</time>
      </trkpt>
      <trkpt lat="42.665560" lon="-2.021920">
        <ele>414.088</ele>
        <time>2021-01-20T14:55:46Z</time>
      </trkpt>
      <trkpt lat="42.666260" lon="-2.022170">
        <ele>410.098</ele>
        <time>2021-01-20T14:56:06Z</time>
      </trkpt>
      <trkpt lat="42.668470" lon="-2.023300">
        <ele>411.079</ele>
        <time>2021-01-20T14:56:26Z</time>
      </trkpt>
      <trkpt lat="42.669680" lon="-2.024270">
        <ele>415.055</ele>
        <time>2021-01-20T14:56:46Z</time>
      </trkpt>
      <trkpt lat="42.669880" lon="-2.025390">
        <ele>417.020</ele>
        <time>2021-01-20T14:57:06Z</time>
      </trkpt>
      <trkpt lat="42.669910" lon="-2.027520">
        <ele>418.054</ele>
        <time>2021-01-20T14:57:26Z</time>
      </trkpt>
      <trkpt lat="42.669410" lon="-2.029330">
        <ele>420.049</ele>
        <time>2021-01-20T14:57:46Z</time>
      </trkpt>
      <trkpt lat="42.667930" lon="-2.031100">
        <ele>416.002</ele>
        <time>2021-01-20T14:58:06Z</time>
      </trkpt>
      <trkpt lat="42.666940" lon="-2.031710">
        <ele>421.022</ele>
        <time>2021-01-20T14:58:26Z</time>
      </trkpt>
      <trkpt lat="42.666790" lon="-2.031600">
        <ele>422.007</ele>
        <time>2021-01-20T14:58:46Z</time>
      </trkpt>
      <trkpt lat="42.666330" lon="-2.031840">
        <ele>423.026</ele>
        <time>2021-01-20T14:59:06Z</time>
      </trkpt>
      <trkpt lat="42.664250" lon="-2.032290">
        <ele>434.063</ele>
        <time>2021-01-20T14:59:26Z</time>
      </trkpt>
      <trkpt lat="42.664080" lon="-2.032920">
        <ele>436.073</ele>
        <time>2021-01-20T14:59:46Z</time>
      </trkpt>
      <trkpt lat="42.663740" lon="-2.032990">
        <ele>438.024</ele>
        <time>2021-01-20T15:00:06Z</time>
      </trkpt>
      <trkpt lat="42.661940" lon="-2.035060">
        <ele>454.070</ele>
        <time>2021-01-20T15:00:26Z</time>
      </trkpt>
      <trkpt lat="42.661020" lon="-2.035460">
        <ele>467.055</ele>
        <time>2021-01-20T15:00:46Z</time>
      </trkpt>
      <trkpt lat="42.660610" lon="-2.036360">
        <ele>472.099</ele>
        <time>2021-01-20T15:01:06Z</time>
      </trkpt>
      <trkpt lat="42.658220" lon="-2.038140">
        <ele>484.058</ele>
        <time>2021-01-20T15:01:26Z</time>
      </trkpt>
      <trkpt lat="42.657240" lon="-2.039640">
        <ele>500.052</ele>
        <time>2021-01-20T15:01:46Z</time>
      </trkpt>
      <trkpt lat="42.656330" lon="-2.040550">
        <ele>505.017</ele>
        <time>2021-01-20T15:02:06Z</time>
      </trkpt>
      <trkpt lat="42.655470" lon="-2.041010">
        <ele>499.007</ele>
        <time>2021-01-20T15:02:26Z</time>
      </trkpt>
      <trkpt lat="42.655100" lon="-2.040780">
        <ele>492.027</ele>
        <time>2021-01-20T15:02:46Z</time>
      </trkpt>
      <trkpt lat="42.654490" lon="-2.041360">
        <ele>484.074</ele>
        <time>2021-01-20T15:03:06Z</time>
      </trkpt>
      <trkpt lat="42.654180" lon="-2.041270">
        <ele>483.054</ele>
        <time>2021-01-20T15:03:26Z</time>
      </trkpt>
      <trkpt lat="42.654210" lon="-2.041090">
        <ele>483.025</ele>
        <time>2021-01-20T15:03:46Z</time>
      </trkpt>
      <trkpt lat="42.653770" lon="-2.041520">
        <ele>483.081</ele>
        <time>2021-01-20T15:04:06Z</time>
      </trkpt>
      <trkpt lat="42.653090" lon="-2.041720">
        <ele>487.046</ele>
        <time>2021-01-20T15:04:26Z</time>
      </trkpt>
      <trkpt lat="42.652230" lon="-2.042290">
        <ele>497.070</ele>
        <time>2021-01-20T15:04:46Z</time>
      </trkpt>
      <trkpt lat="42.649990" lon="-2.044570">
        <ele>511.075</ele>
        <time>2021-01-20T15:05:06Z</time>
      </trkpt>
      <trkpt lat="42.648230" lon="-2.047300">
        <ele>519.028</ele>
        <time>2021-01-20T15:05:26Z</time>
      </trkpt>
      <trkpt lat="42.647500" lon="-2.047680">
        <ele>532.020</ele>
        <time>2021-01-20T15:05:46Z</time>
      </trkpt>
      <trkpt lat="42.646090" lon="-2.048030">
        <ele>546.007</ele>
        <time>2021-01-20T15:06:06Z</time>
      </trkpt>
      <trkpt lat="42.646360" lon="-2.048160">
        <ele>545.079</ele>
        <time>2021-01-20T15:06:26Z</time>
      </trkpt>
      <trkpt lat="42.647070" lon="-2.052900">
        <ele>552.026</ele>
        <time>2021-01-20T15:06:46Z</time>
      </trkpt>
      <trkpt lat="42.647270" lon="-2.053100">
        <ele>551.056</ele>
        <time>2021-01-20T15:07:06Z</time>
      </trkpt>
      <trkpt lat="42.646910" lon="-2.055770">
        <ele>556.047</ele>
        <time>2021-01-20T15:07:26Z</time>
      </trkpt>
      <trkpt lat="42.645970" lon="-2.057990">
        <ele>560.083</ele>
        <time>2021-01-20T15:07:46Z</time>
      </trkpt>
      <trkpt lat="42.645000" lon="-2.062000">
        <ele>568.058</ele>
        <time>2021-01-20T15:08:06Z</time>
      </trkpt>
      <trkpt lat="42.643920" lon="-2.064590">
        <ele>569.072</ele>
        <time>2021-01-20T15:08:26Z</time>
      </trkpt>
      <trkpt lat="42.642780" lon="-2.066520">
        <ele>570.055</ele>
        <time>2021-01-20T15:08:46Z</time>
      </trkpt>
      <trkpt lat="42.641970" lon="-2.068620">
        <ele>575.007</ele>
        <time>2021-01-20T15:09:06Z</time>
      </trkpt>
      <trkpt lat="42.641910" lon="-2.069200">
        <ele>573.017</ele>
        <time>2021-01-20T15:09:26Z</time>
      </trkpt>
      <trkpt lat="42.641930" lon="-2.069170">
        <ele>573.007</ele>
        <time>2021-01-20T15:09:46Z</time>
      </trkpt>
      <trkpt lat="42.641290" lon="-2.071790">
        <ele>571.087</ele>
        <time>2021-01-20T15:10:06Z</time>
      </trkpt>
      <trkpt lat="42.640690" lon="-2.073350">
        <ele>574.064</ele>
        <time>2021-01-20T15:10:26Z</time>
      </trkpt>
      <trkpt lat="42.640130" lon="-2.073000">
        <ele>582.034</ele>
        <time>2021-01-20T15:10:46Z</time>
      </trkpt>
      <trkpt lat="42.639650" lon="-2.072970">
        <ele>585.075</ele>
        <time>2021-01-20T15:11:06Z</time>
      </trkpt>
      <trkpt lat="42.639060" lon="-2.073670">
        <ele>588.011</ele>
        <time>2021-01-20T15:11:26Z</time>
      </trkpt>
      <trkpt lat="42.638930" lon="-2.074950">
        <ele>585.066</ele>
        <time>2021-01-20T15:11:46Z</time>
      </trkpt>
      <trkpt lat="42.638600" lon="-2.075530">
        <ele>585.030</ele>
        <time>2021-01-20T15:12:06Z</time>
      </trkpt>
      <trkpt lat="42.638030" lon="-2.077830">
        <ele>582.095</ele>
        <time>2021-01-20T15:12:26Z</time>
      </trkpt>
      <trkpt lat="42.638000" lon="-2.078730">
        <ele>579.049</ele>
        <time>2021-01-20T15:12:46Z</time>
      </trkpt>
      <trkpt lat="42.638140" lon="-2.077370">
        <ele>584.023</ele>
        <time>2021-01-20T15:13:06Z</time>
      </trkpt>
      <trkpt lat="42.637830" lon="-2.081140">
        <ele>560.007</ele>
        <time>2021-01-20T15:13:26Z</time>
      </trkpt>
      <trkpt lat="42.638650" lon="-2.081980">
        <ele>550.091</ele>
        <time>2021-01-20T15:13:46Z</time>
      </trkpt>
      <trkpt lat="42.638820" lon="-2.082760">
        <ele>547.088</ele>
        <time>2021-01-20T15:14:06Z</time>
      </trkpt>
      <trkpt lat="42.638650" lon="-2.083730">
        <ele>545.078</ele>
        <time>2021-01-20T15:14:26Z</time>
      </trkpt>
      <trkpt lat="42.637890" lon="-2.083140">
        <ele>553.089</ele>
        <time>2021-01-20T15:14:46Z</time>
      </trkpt>
      <trkpt lat="42.637540" lon="-2.083070">
        <ele>557.065</ele>
        <time>2021-01-20T15:15:06Z</time>
      </trkpt>
      <trkpt lat="42.637080" lon="-2.083470">
        <ele>570.060</ele>
        <time>2021-01-20T15:15:26Z</time>
      </trkpt>
      <trkpt lat="42.636260" lon="-2.085450">
        <ele>566.094</ele>
        <time>2021-01-20T15:15:46Z</time>
      </trkpt>
      <trkpt lat="42.635750" lon="-2.086370">
        <ele>573.067</ele>
        <time>2021-01-20T15:16:06Z</time>
      </trkpt>
      <trkpt lat="42.635620" lon="-2.087150">
        <ele>570.081</ele>
        <time>2021-01-20T15:16:26Z</time>
      </trkpt>
      <trkpt lat="42.634580" lon="-2.087320">
        <ele>575.019</ele>
        <time>2021-01-20T15:16:46Z</time>
      </trkpt>
      <trkpt lat="42.633990" lon="-2.088080">
        <ele>569.007</ele>
        <time>2021-01-20T15:17:06Z</time>
      </trkpt>
      <trkpt lat="42.633980" lon="-2.088610">
        <ele>565.018</ele>
        <time>2021-01-20T15:17:26Z</time>
      </trkpt>
      <trkpt lat="42.634390" lon="-2.089240">
        <ele>558.055</ele>
        <time>2021-01-20T15:17:46Z</time>
      </trkpt>
      <trkpt lat="42.633960" lon="-2.089490">
        <ele>563.035</ele>
        <time>2021-01-20T15:18:06Z</time>
      </trkpt>
      <trkpt lat="42.633250" lon="-2.090320">
        <ele>572.026</ele>
        <time>2021-01-20T15:18:26Z</time>
      </trkpt>
      <trkpt lat="42.633090" lon="-2.092080">
        <ele>581.012</ele>
        <time>2021-01-20T15:18:46Z</time>
      </trkpt>
      <trkpt lat="42.632630" lon="-2.093100">
        <ele>604.027</ele>
        <time>2021-01-20T15:19:06Z</time>
      </trkpt>
      <trkpt lat="42.632600" lon="-2.093660">
        <ele>607.081</ele>
        <time>2021-01-20T15:19:26Z</time>
      </trkpt>
      <trkpt lat="42.632100" lon="-2.095190">
        <ele>615.013</ele>
        <time>2021-01-20T15:19:46Z</time>
      </trkpt>
      <trkpt lat="42.631870" lon="-2.094860">
        <ele>616.043</ele>
        <time>2021-01-20T15:20:06Z</time>
      </trkpt>
      <trkpt lat="42.631750" lon="-2.094970">
        <ele>619.007</ele>
        <time>2021-01-20T15:20:26Z</time>
      </trkpt>
      <trkpt lat="42.632080" lon="-2.096270">
        <ele>630.007</ele>
        <time>2021-01-20T15:20:46Z</time>
      </trkpt>
      <trkpt lat="42.632100" lon="-2.097630">
        <ele>639.043</ele>
        <time>2021-01-20T15:21:06Z</time>
      </trkpt>
      <trkpt lat="42.631750" lon="-2.098360">
        <ele>644.090</ele>
        <time>2021-01-20T15:21:26Z</time>
      </trkpt>
      <trkpt lat="42.630960" lon="-2.098970">
        <ele>651.060</ele>
        <time>2021-01-20T15:21:46Z</time>
      </trkpt>
      <trkpt lat="42.630600" lon="-2.100200">
        <ele>664.051</ele>
        <time>2021-01-20T15:22:06Z</time>
      </trkpt>
      <trkpt lat="42.629780" lon="-2.101000">
        <ele>662.097</ele>
        <time>2021-01-20T15:22:26Z</time>
      </trkpt>
      <trkpt lat="42.629520" lon="-2.101680">
        <ele>659.052</ele>
        <time>2021-01-20T15:22:46Z</time>
      </trkpt>
      <trkpt lat="42.629350" lon="-2.103020">
        <ele>675.086</ele>
        <time>2021-01-20T15:23:06Z</time>
      </trkpt>
      <trkpt lat="42.628770" lon="-2.104170">
        <ele>666.069</ele>
        <time>2021-01-20T15:23:26Z</time>
      </trkpt>
      <trkpt lat="42.628360" lon="-2.103930">
        <ele>653.004</ele>
        <time>2021-01-20T15:23:46Z</time>
      </trkpt>
      <trkpt lat="42.627420" lon="-2.103770">
        <ele>647.024</ele>
        <time>2021-01-20T15:24:06Z</time>
      </trkpt>
      <trkpt lat="42.627620" lon="-2.103840">
        <ele>647.007</ele>
        <time>2021-01-20T15:24:26Z</time>
      </trkpt>
      <trkpt lat="42.626570" lon="-2.103460">
        <ele>636.088</ele>
        <time>2021-01-20T15:24:46Z</time>
      </trkpt>
      <trkpt lat="42.622370" lon="-2.102030">
        <ele>589.055</ele>
        <time>2021-01-20T15:25:06Z</time>
      </trkpt>
      <trkpt lat="42.621060" lon="-2.102190">
        <ele>586.095</ele>
        <time>2021-01-20T15:25:26Z</time>
      </trkpt>
      <trkpt lat="42.619870" lon="-2.103760">
        <ele>581.016</ele>
        <time>2021-01-20T15:25:46Z</time>
      </trkpt>
      <trkpt lat="42.618990" lon="-2.105290">
        <ele>574.042</ele>
        <time>2021-01-20T15:26:06Z</time>
      </trkpt>
      <trkpt lat="42.618450" lon="-2.107430">
        <ele>573.057</ele>
        <time>2021-01-20T15:26:26Z</time>
      </trkpt>
      <trkpt lat="42.617140" lon="-2.109790">
        <ele>561.091</ele>
        <time>2021-01-20T15:26:46Z</time>
      </trkpt>
      <trkpt lat="42.615740" lon="-2.111900">
        <ele>552.086</ele>
        <time>2021-01-20T15:27:06Z</time>
      </trkpt>
      <trkpt lat="42.614530" lon="-2.113290">
        <ele>555.060</ele>
        <time>2021-01-20T15:27:26Z</time>
      </trkpt>
      <trkpt lat="42.613780" lon="-2.113680">
        <ele>558.026</ele>
        <time>2021-01-20T15:27:46Z</time>
      </trkpt>
      <trkpt lat="42.612850" lon="-2.113290">
        <ele>555.007</ele>
        <time>2021-01-20T15:28:06Z</time>
      </trkpt>
      <trkpt lat="42.612450" lon="-2.113310">
        <ele>553.060</ele>
        <time>2021-01-20T15:28:26Z</time>
      </trkpt>
      <trkpt lat="42.609110" lon="-2.114520">
        <ele>551.087</ele>
        <time>2021-01-20T15:28:46Z</time>
      </trkpt>
      <trkpt lat="42.608130" lon="-2.115770">
        <ele>552.097</ele>
        <time>2021-01-20T15:29:06Z</time>
      </trkpt>
      <trkpt lat="42.605000" lon="-2.116270">
        <ele>537.058</ele>
        <time>2021-01-20T15:29:26Z</time>
      </trkpt>
      <trkpt lat="42.604650" lon="-2.116730">
        <ele>535.074</ele>
        <time>2021-01-20T15:29:46Z</time>
      </trkpt>
      <trkpt lat="42.604370" lon="-2.118500">
        <ele>533.079</ele>
        <time>2021-01-20T15:30:06Z</time>
      </trkpt>
      <trkpt lat="42.603700" lon="-2.119420">
        <ele>537.053</ele>
        <time>2021-01-20T15:30:26Z</time>
      </trkpt>
      <trkpt lat="42.603450" lon="-2.123520">
        <ele>538.048</ele>
        <time>2021-01-20T15:30:46Z</time>
      </trkpt>
      <trkpt lat="42.603090" lon="-2.124400">
        <ele>540.061</ele>
        <time>2021-01-20T15:31:06Z</time>
      </trkpt>
      <trkpt lat="42.602460" lon="-2.124690">
        <ele>544.017</ele>
        <time>2021-01-20T15:31:26Z</time>
      </trkpt>
      <trkpt lat="42.600580" lon="-2.126550">
        <ele>528.007</ele>
        <time>2021-01-20T15:31:46Z</time>
      </trkpt>
      <trkpt lat="42.600050" lon="-2.133380">
        <ele>526.096</ele>
        <time>2021-01-20T15:32:06Z</time>
      </trkpt>
      <trkpt lat="42.599270" lon="-2.139950">
        <ele>521.043</ele>
        <time>2021-01-20T15:32:26Z</time>
      </trkpt>
      <trkpt lat="42.598390" lon="-2.142240">
        <ele>509.063</ele>
        <time>2021-01-20T15:32:46Z</time>
      </trkpt>
      <trkpt lat="42.597860" lon="-2.144300">
        <ele>509.084</ele>
        <time>2021-01-20T15:33:06Z</time>
      </trkpt>
      <trkpt lat="42.596460" lon="-2.145600">
        <ele>507.070</ele>
        <time>2021-01-20T15:33:26Z</time>
      </trkpt>
      <trkpt lat="42.596840" lon="-2.147810">
        <ele>499.035</ele>
        <time>2021-01-20T15:33:46Z</time>
      </trkpt>
      <trkpt lat="42.596590" lon="-2.149820">
        <ele>507.069</ele>
        <time>2021-01-20T15:34:06Z</time>
      </trkpt>
      <trkpt lat="42.596700" lon="-2.150910">
        <ele>513.023</ele>
        <time>2021-01-20T15:34:26Z</time>
      </trkpt>
      <trkpt lat="42.596410" lon="-2.151500">
        <ele>510.083</ele>
        <time>2021-01-20T15:34:46Z</time>
      </trkpt>
      <trkpt lat="42.596160" lon="-2.153190">
        <ele>517.011</ele>
        <time>2021-01-20T15:35:06Z</time>
      </trkpt>
      <trkpt lat="42.596220" lon="-2.156340">
        <ele>532.007</ele>
        <time>2021-01-20T15:35:26Z</time>
      </trkpt>
      <trkpt lat="42.593220" lon="-2.156670">
        <ele>527.064</ele>
        <time>2021-01-20T15:35:46Z</time>
      </trkpt>
      <trkpt lat="42.593060" lon="-2.156870">
        <ele>527.041</ele>
        <time>2021-01-20T15:36:06Z</time>
      </trkpt>
      <trkpt lat="42.592890" lon="-2.159290">
        <ele>529.091</ele>
        <time>2021-01-20T15:36:26Z</time>
      </trkpt>
      <trkpt lat="42.593030" lon="-2.169420">
        <ele>506.062</ele>
        <time>2021-01-20T15:36:46Z</time>
      </trkpt>
      <trkpt lat="42.593140" lon="-2.169680">
        <ele>506.048</ele>
        <time>2021-01-20T15:37:06Z</time>
      </trkpt>
      <trkpt lat="42.593620" lon="-2.169920">
        <ele>502.083</ele>
        <time>2021-01-20T15:37:26Z</time>
      </trkpt>
      <trkpt lat="42.593760" lon="-2.170260">
        <ele>501.017</ele>
        <time>2021-01-20T15:37:46Z</time>
      </trkpt>
      <trkpt lat="42.593750" lon="-2.171590">
        <ele>497.084</ele>
        <time>2021-01-20T15:38:06Z</time>
      </trkpt>
      <trkpt lat="42.593650" lon="-2.174160">
        <ele>495.007</ele>
        <time>2021-01-20T15:38:26Z</time>
      </trkpt>
      <trkpt lat="42.592880" lon="-2.176850">
        <ele>487.017</ele>
        <time>2021-01-20T15:38:46Z</time>
      </trkpt>
      <trkpt lat="42.592010" lon="-2.177930">
        <ele>485.007</ele>
        <time>2021-01-20T15:39:06Z</time>
      </trkpt>
      <trkpt lat="42.592060" lon="-2.177590">
        <ele>483.080</ele>
        <time>2021-01-20T15:39:26Z</time>
      </trkpt>
      <trkpt lat="42.591290" lon="-2.177910">
        <ele>485.057</ele>
        <time>2021-01-20T15:39:46Z</time>
      </trkpt>
      <trkpt lat="42.591020" lon="-2.178740">
        <ele>484.047</ele>
        <time>2021-01-20T15:40:06Z</time>
      </trkpt>
      <trkpt lat="42.589960" lon="-2.179880">
        <ele>496.078</ele>
        <time>2021-01-20T15:40:26Z</time>
      </trkpt>
      <trkpt lat="42.589680" lon="-2.180490">
        <ele>498.084</ele>
        <time>2021-01-20T15:40:46Z</time>
      </trkpt>
      <trkpt lat="42.586210" lon="-2.182050">
        <ele>493.049</ele>
        <time>2021-01-20T15:41:06Z</time>
      </trkpt>
      <trkpt lat="42.585000" lon="-2.182270">
        <ele>488.063</ele>
        <time>2021-01-20T15:41:26Z</time>
      </trkpt>
      <trkpt lat="42.584720" lon="-2.182470">
        <ele>486.015</ele>
        <time>2021-01-20T15:41:46Z</time>
      </trkpt>
      <trkpt lat="42.584450" lon="-2.182980">
        <ele>486.065</ele>
        <time>2021-01-20T15:42:06Z</time>
      </trkpt>
      <trkpt lat="42.583820" lon="-2.183460">
        <ele>479.011</ele>
        <time>2021-01-20T15:42:26Z</time>
      </trkpt>
      <trkpt lat="42.581430" lon="-2.187160">
        <ele>490.007</ele>
        <time>2021-01-20T15:42:46Z</time>
      </trkpt>
      <trkpt lat="42.579770" lon="-2.188520">
        <ele>482.033</ele>
        <time>2021-01-20T15:43:06Z</time>
      </trkpt>
      <trkpt lat="42.578970" lon="-2.188720">
        <ele>467.050</ele>
        <time>2021-01-20T15:43:26Z</time>
      </trkpt>
      <trkpt lat="42.576340" lon="-2.190280">
        <ele>445.010</ele>
        <time>2021-01-20T15:43:46Z</time>
      </trkpt>
      <trkpt lat="42.573830" lon="-2.193120">
        <ele>450.041</ele>
        <time>2021-01-20T15:44:06Z</time>
      </trkpt>
      <trkpt lat="42.571900" lon="-2.193370">
        <ele>448.097</ele>
        <time>2021-01-20T15:44:26Z</time>
      </trkpt>
      <trkpt lat="42.570730" lon="-2.192740">
        <ele>448.052</ele>
        <time>2021-01-20T15:44:46Z</time>
      </trkpt>
      <trkpt lat="42.569730" lon="-2.192740">
        <ele>446.056</ele>
        <time>2021-01-20T15:45:06Z</time>
      </trkpt>
      <trkpt lat="42.569330" lon="-2.192400">
        <ele>448.011</ele>
        <time>2021-01-20T15:45:26Z</time>
      </trkpt>
      <trkpt lat="42.568900" lon="-2.193000">
        <ele>444.021</ele>
        <time>2021-01-20T15:45:46Z</time>
      </trkpt>
      <trkpt lat="42.568860" lon="-2.193370">
        <ele>443.003</ele>
        <time>2021-01-20T15:46:06Z</time>
      </trkpt>
      <trkpt lat="42.569240" lon="-2.193700">
        <ele>444.007</ele>
        <time>2021-01-20T15:46:26Z</time>
      </trkpt>
      <trkpt lat="42.569600" lon="-2.193430">
        <ele>444.013</ele>
        <time>2021-01-20T15:46:46Z</time>
      </trkpt>
      <trkpt lat="42.569360" lon="-2.193580">
        <ele>444.040</ele>
        <time>2021-01-20T15:47:06Z</time>
      </trkpt>
      <trkpt lat="42.569710" lon="-2.193570">
        <ele>443.040</ele>
        <time>2021-01-20T15:47:26Z</time>
      </trkpt>
      <trkpt lat="42.569340" lon="-2.193530">
        <ele>444.041</ele>
        <time>2021-01-20T15:47:46Z</time>
      </trkpt>
      <trkpt lat="42.568960" lon="-2.193920">
        <ele>443.087</ele>
        <time>2021-01-20T15:48:06Z</time>
      </trkpt>
      <trkpt lat="42.569140" lon="-2.194170">
        <ele>443.062</ele>
        <time>2021-01-20T15:48:26Z</time>
      </trkpt>
      <trkpt lat="42.568790" lon="-2.193960">
        <ele>443.056</ele>
        <time>2021-01-20T15:48:46Z</time>
      </trkpt>
      <trkpt lat="42.567260" lon="-2.198970">
        <ele>459.073</ele>
        <time>2021-01-20T15:49:06Z</time>
      </trkpt>
      <trkpt lat="42.566090" lon="-2.208430">
        <ele>456.085</ele>
        <time>2021-01-20T15:49:26Z</time>
      </trkpt>
      <trkpt lat="42.564880" lon="-2.224280">
        <ele>462.013</ele>
        <time>2021-01-20T15:49:46Z</time>
      </trkpt>
      <trkpt lat="42.562880" lon="-2.235700">
        <ele>448.007</ele>
        <time>2021-01-20T15:50:06Z</time>
      </trkpt>
      <trkpt lat="42.563580" lon="-2.237080">
        <ele>453.019</ele>
        <time>2021-01-20T15:50:26Z</time>
      </trkpt>
      <trkpt lat="42.563810" lon="-2.242800">
        <ele>462.016</ele>
        <time>2021-01-20T15:50:46Z</time>
      </trkpt>
      <trkpt lat="42.563450" lon="-2.245690">
        <ele>462.076</ele>
        <time>2021-01-20T15:51:06Z</time>
      </trkpt>
      <trkpt lat="42.563700" lon="-2.247790">
        <ele>466.077</ele>
        <time>2021-01-20T15:51:26Z</time>
      </trkpt>
      <trkpt lat="42.564340" lon="-2.249770">
        <ele>465.093</ele>
        <time>2021-01-20T15:51:46Z</time>
      </trkpt>
      <trkpt lat="42.563590" lon="-2.254040">
        <ele>455.028</ele>
        <time>2021-01-20T15:52:06Z</time>
      </trkpt>
      <trkpt lat="42.563740" lon="-2.255160">
        <ele>453.062</ele>
        <time>2021-01-20T15:52:26Z</time>
      </trkpt>
      <trkpt lat="42.562820" lon="-2.256450">
        <ele>451.071</ele>
        <time>2021-01-20T15:52:46Z</time>
      </trkpt>
      <trkpt lat="42.562860" lon="-2.257390">
        <ele>464.041</ele>
        <time>2021-01-20T15:53:06Z</time>
      </trkpt>
      <trkpt lat="42.560580" lon="-2.259500">
        <ele>466.015</ele>
        <time>2021-01-20T15:53:26Z</time>
      </trkpt>
      <trkpt lat="42.559310" lon="-2.261270">
        <ele>464.007</ele>
        <time>2021-01-20T15:53:46Z</time>
      </trkpt>
      <trkpt lat="42.557500" lon="-2.264970">
        <ele>470.049</ele>
        <time>2021-01-20T15:54:06Z</time>
      </trkpt>
      <trkpt lat="42.556610" lon="-2.264960">
        <ele>479.036</ele>
        <time>2021-01-20T15:54:26Z</time>
      </trkpt>
      <trkpt lat="42.555380" lon="-2.266220">
        <ele>488.016</ele>
        <time>2021-01-20T15:54:46Z</time>
      </trkpt>
      <trkpt lat="42.554930" lon="-2.266430">
        <ele>488.077</ele>
        <time>2021-01-20T15:55:06Z</time>
      </trkpt>
      <trkpt lat="42.554160" lon="-2.266510">
        <ele>490.033</ele>
        <time>2021-01-20T15:55:26Z</time>
      </trkpt>
      <trkpt lat="42.553630" lon="-2.266040">
        <ele>487.018</ele>
        <time>2021-01-20T15:55:46Z</time>
      </trkpt>
      <trkpt lat="42.553050" lon="-2.265960">
        <ele>484.012</ele>
        <time>2021-01-20T15:56:06Z</time>
      </trkpt>
      <trkpt lat="42.552280" lon="-2.266610">
        <ele>472.088</ele>
        <time>2021-01-20T15:56:26Z</time>
      </trkpt>
      <trkpt lat="42.551980" lon="-2.266570">
        <ele>470.024</ele>
        <time>2021-01-20T15:56:46Z</time>
      </trkpt>
      <trkpt lat="42.551140" lon="-2.267000">
        <ele>465.026</ele>
        <time>2021-01-20T15:57:06Z</time>
      </trkpt>
      <trkpt lat="42.550560" lon="-2.267760">
        <ele>456.007</ele>
        <time>2021-01-20T15:57:26Z</time>
      </trkpt>
      <trkpt lat="42.550380" lon="-2.268520">
        <ele>451.090</ele>
        <time>2021-01-20T15:57:46Z</time>
      </trkpt>
      <trkpt lat="42.550580" lon="-2.269520">
        <ele>444.027</ele>
        <time>2021-01-20T15:58:06Z</time>
      </trkpt>
      <trkpt lat="42.551190" lon="-2.270450">
        <ele>452.087</ele>
        <time>2021-01-20T15:58:26Z</time>
      </trkpt>
      <trkpt lat="42.552050" lon="-2.271380">
        <ele>467.058</ele>
        <time>2021-01-20T15:58:46Z</time>
      </trkpt>
      <trkpt lat="42.551870" lon="-2.272230">
        <ele>467.064</ele>
        <time>2021-01-20T15:59:06Z</time>
      </trkpt>
      <trkpt lat="42.551220" lon="-2.274630">
        <ele>481.099</ele>
        <time>2021-01-20T15:59:26Z</time>
      </trkpt>
      <trkpt lat="42.549650" lon="-2.277370">
        <ele>497.023</ele>
        <time>2021-01-20T15:59:46Z</time>
      </trkpt>
      <trkpt lat="42.549100" lon="-2.282020">
        <ele>496.056</ele>
        <time>2021-01-20T16:00:06Z</time>
      </trkpt>
      <trkpt lat="42.548520" lon="-2.283200">
        <ele>488.059</ele>
        <time>2021-01-20T16:00:26Z</time>
      </trkpt>
      <trkpt lat="42.548460" lon="-2.283850">
        <ele>490.014</ele>
        <time>2021-01-20T16:00:46Z</time>
      </trkpt>
      <trkpt lat="42.547230" lon="-2.285420">
        <ele>485.007</ele>
        <time>2021-01-20T16:01:06Z</time>
      </trkpt>
      <trkpt lat="42.547160" lon="-2.286160">
        <ele>484.017</ele>
        <time>2021-01-20T16:01:26Z</time>
      </trkpt>
      <trkpt lat="42.546670" lon="-2.287400">
        <ele>489.094</ele>
        <time>2021-01-20T16:01:46Z</time>
      </trkpt>
      <trkpt lat="42.546230" lon="-2.287520">
        <ele>498.034</ele>
        <time>2021-01-20T16:02:06Z</time>
      </trkpt>
      <trkpt lat="42.545470" lon="-2.287400">
        <ele>508.025</ele>
        <time>2021-01-20T16:02:26Z</time>
      </trkpt>
      <trkpt lat="42.544900" lon="-2.287740">
        <ele>513.011</ele>
        <time>2021-01-20T16:02:46Z</time>
      </trkpt>
      <trkpt lat="42.544210" lon="-2.291670">
        <ele>534.066</ele>
        <time>2021-01-20T16:03:06Z</time>
      </trkpt>
      <trkpt lat="42.543510" lon="-2.293060">
        <ele>547.080</ele>
        <time>2021-01-20T16:03:26Z</time>
      </trkpt>
      <trkpt lat="42.543620" lon="-2.293390">
        <ele>548.032</ele>
        <time>2021-01-20T16:03:46Z</time>
      </trkpt>
      <trkpt lat="42.542890" lon="-2.295540">
        <ele>555.092</ele>
        <time>2021-01-20T16:04:06Z</time>
      </trkpt>
      <trkpt lat="42.542000" lon="-2.296890">
        <ele>553.011</ele>
        <time>2021-01-20T16:04:26Z</time>
      </trkpt>
      <trkpt lat="42.541750" lon="-2.297970">
        <ele>539.007</ele>
        <time>2021-01-20T16:04:46Z</time>
      </trkpt>
      <trkpt lat="42.542500" lon="-2.299480">
        <ele>536.015</ele>
        <time>2021-01-20T16:05:06Z</time>
      </trkpt>
      <trkpt lat="42.542320" lon="-2.300020">
        <ele>535.032</ele>
        <time>2021-01-20T16:05:26Z</time>
      </trkpt>
      <trkpt lat="42.541510" lon="-2.300130">
        <ele>539.012</ele>
        <time>2021-01-20T16:05:46Z</time>
      </trkpt>
      <trkpt lat="42.541860" lon="-2.300910">
        <ele>543.053</ele>
        <time>2021-01-20T16:06:06Z</time>
      </trkpt>
      <trkpt lat="42.541910" lon="-2.301470">
        <ele>550.029</ele>
        <time>2021-01-20T16:06:26Z</time>
      </trkpt>
      <trkpt lat="42.541880" lon="-2.301650">
        <ele>553.084</ele>
        <time>2021-01-20T16:06:46Z</time>
      </trkpt>
      <trkpt lat="42.541630" lon="-2.301610">
        <ele>557.058</ele>
        <time>2021-01-20T16:07:06Z</time>
      </trkpt>
      <trkpt lat="42.541240" lon="-2.302680">
        <ele>565.091</ele>
        <time>2021-01-20T16:07:26Z</time>
      </trkpt>
      <trkpt lat="42.541360" lon="-2.304820">
        <ele>572.081</ele>
        <time>2021-01-20T16:07:46Z</time>
      </trkpt>
      <trkpt lat="42.541090" lon="-2.305780">
        <ele>571.019</ele>
        <time>2021-01-20T16:08:06Z</time>
      </trkpt>
      <trkpt lat="42.541110" lon="-2.306230">
        <ele>571.007</ele>
        <time>2021-01-20T16:08:26Z</time>
      </trkpt>
      <trkpt lat="42.540380" lon="-2.306250">
        <ele>567.091</ele>
        <time>2021-01-20T16:08:46Z</time>
      </trkpt>
      <trkpt lat="42.540350" lon="-2.306640">
        <ele>562.018</ele>
        <time>2021-01-20T16:09:06Z</time>
      </trkpt>
      <trkpt lat="42.540830" lon="-2.307500">
        <ele>564.038</ele>
        <time>2021-01-20T16:09:26Z</time>
      </trkpt>
      <trkpt lat="42.540970" lon="-2.308370">
        <ele>558.019</ele>
        <time>2021-01-20T16:09:46Z</time>
      </trkpt>
      <trkpt lat="42.540620" lon="-2.310210">
        <ele>542.045</ele>
        <time>2021-01-20T16:10:06Z</time>
      </trkpt>
      <trkpt lat="42.539800" lon="-2.311000">
        <ele>527.070</ele>
        <time>2021-01-20T16:10:26Z</time>
      </trkpt>
      <trkpt lat="42.539710" lon="-2.312120">
        <ele>515.084</ele>
        <time>2021-01-20T16:10:46Z</time>
      </trkpt>
      <trkpt lat="42.539540" lon="-2.312460">
        <ele>506.025</ele>
        <time>2021-01-20T16:11:06Z</time>
      </trkpt>
      <trkpt lat="42.539170" lon="-2.312460">
        <ele>503.026</ele>
        <time>2021-01-20T16:11:26Z</time>
      </trkpt>
      <trkpt lat="42.539140" lon="-2.312920">
        <ele>502.008</ele>
        <time>2021-01-20T16:11:46Z</time>
      </trkpt>
      <trkpt lat="42.539390" lon="-2.313210">
        <ele>504.007</ele>
        <time>2021-01-20T16:12:06Z</time>
      </trkpt>
      <trkpt lat="42.539670" lon="-2.313260">
        <ele>505.014</ele>
        <time>2021-01-20T16:12:26Z</time>
      </trkpt>
      <trkpt lat="42.539810" lon="-2.313720">
        <ele>507.041</ele>
        <time>2021-01-20T16:12:46Z</time>
      </trkpt>
      <trkpt lat="42.538580" lon="-2.313920">
        <ele>500.061</ele>
        <time>2021-01-20T16:13:06Z</time>
      </trkpt>
      <trkpt lat="42.538060" lon="-2.314550">
        <ele>496.072</ele>
        <time>2021-01-20T16:13:26Z</time>
      </trkpt>
      <trkpt lat="42.537420" lon="-2.314940">
        <ele>485.098</ele>
        <time>2021-01-20T16:13:46Z</time>
      </trkpt>
      <trkpt lat="42.537070" lon="-2.316500">
        <ele>490.043</ele>
        <time>2021-01-20T16:14:06Z</time>
      </trkpt>
      <trkpt lat="42.536270" lon="-2.317760">
        <ele>479.067</ele>
        <time>2021-01-20T16:14:26Z</time>
      </trkpt>
      <trkpt lat="42.536030" lon="-2.318410">
        <ele>475.098</ele>
        <time>2021-01-20T16:14:46Z</time>
      </trkpt>
      <trkpt lat="42.535580" lon="-2.318840">
        <ele>465.015</ele>
        <time>2021-01-20T16:15:06Z</time>
      </trkpt>
      <trkpt lat="42.534840" lon="-2.319090">
        <ele>461.026</ele>
        <time>2021-01-20T16:15:26Z</time>
      </trkpt>
      <trkpt lat="42.534270" lon="-2.319530">
        <ele>463.007</ele>
        <time>2021-01-20T16:15:46Z</time>
      </trkpt>
      <trkpt lat="42.532010" lon="-2.322240">
        <ele>461.081</ele>
        <time>2021-01-20T16:16:06Z</time>
      </trkpt>
      <trkpt lat="42.528610" lon="-2.323490">
        <ele>453.048</ele>
        <time>2021-01-20T16:16:26Z</time>
      </trkpt>
      <trkpt lat="42.527880" lon="-2.324140">
        <ele>452.088</ele>
        <time>2021-01-20T16:16:46Z</time>
      </trkpt>
      <trkpt lat="42.526330" lon="-2.326080">
        <ele>467.019</ele>
        <time>2021-01-20T16:17:06Z</time>
      </trkpt>
      <trkpt lat="42.526120" lon="-2.326890">
        <ele>471.075</ele>
        <time>2021-01-20T16:17:26Z</time>
      </trkpt>
      <trkpt lat="42.526230" lon="-2.328330">
        <ele>473.030</ele>
        <time>2021-01-20T16:17:46Z</time>
      </trkpt>
      <trkpt lat="42.525910" lon="-2.330090">
        <ele>483.094</ele>
        <time>2021-01-20T16:18:06Z</time>
      </trkpt>
      <trkpt lat="42.525170" lon="-2.330630">
        <ele>495.014</ele>
        <time>2021-01-20T16:18:26Z</time>
      </trkpt>
      <trkpt lat="42.524640" lon="-2.331330">
        <ele>500.054</ele>
        <time>2021-01-20T16:18:46Z</time>
      </trkpt>
      <trkpt lat="42.524070" lon="-2.334210">
        <ele>491.009</ele>
        <time>2021-01-20T16:19:06Z</time>
      </trkpt>
      <trkpt lat="42.523210" lon="-2.336750">
        <ele>475.007</ele>
        <time>2021-01-20T16:19:26Z</time>
      </trkpt>
      <trkpt lat="42.521970" lon="-2.339240">
        <ele>474.073</ele>
        <time>2021-01-20T16:19:46Z</time>
      </trkpt>
      <trkpt lat="42.521200" lon="-2.340310">
        <ele>473.090</ele>
        <time>2021-01-20T16:20:06Z</time>
      </trkpt>
      <trkpt lat="42.520000" lon="-2.343310">
        <ele>473.060</ele>
        <time>2021-01-20T16:20:26Z</time>
      </trkpt>
      <trkpt lat="42.518340" lon="-2.350270">
        <ele>458.021</ele>
        <time>2021-01-20T16:20:46Z</time>
      </trkpt>
      <trkpt lat="42.517730" lon="-2.351390">
        <ele>455.047</ele>
        <time>2021-01-20T16:21:06Z</time>
      </trkpt>
      <trkpt lat="42.517130" lon="-2.355160">
        <ele>445.022</ele>
        <time>2021-01-20T16:21:26Z</time>
      </trkpt>
      <trkpt lat="42.517190" lon="-2.356070">
        <ele>442.036</ele>
        <time>2021-01-20T16:21:46Z</time>
      </trkpt>
      <trkpt lat="42.516790" lon="-2.356620">
        <ele>442.081</ele>
        <time>2021-01-20T16:22:06Z</time>
      </trkpt>
      <trkpt lat="42.516460" lon="-2.357760">
        <ele>440.061</ele>
        <time>2021-01-20T16:22:26Z</time>
      </trkpt>
      <trkpt lat="42.515840" lon="-2.361930">
        <ele>443.017</ele>
        <time>2021-01-20T16:22:46Z</time>
      </trkpt>
      <trkpt lat="42.515980" lon="-2.362240">
        <ele>445.007</ele>
        <time>2021-01-20T16:23:06Z</time>
      </trkpt>
      <trkpt lat="42.515570" lon="-2.363680">
        <ele>444.090</ele>
        <time>2021-01-20T16:23:26Z</time>
      </trkpt>
      <trkpt lat="42.515430" lon="-2.367230">
        <ele>452.067</ele>
        <time>2021-01-20T16:23:46Z</time>
      </trkpt>
      <trkpt lat="42.515030" lon="-2.369190">
        <ele>459.017</ele>
        <time>2021-01-20T16:24:06Z</time>
      </trkpt>
      <trkpt lat="42.515370" lon="-2.369600">
        <ele>467.088</ele>
        <time>2021-01-20T16:24:26Z</time>
      </trkpt>
      <trkpt lat="42.515060" lon="-2.370180">
        <ele>470.094</ele>
        <time>2021-01-20T16:24:46Z</time>
      </trkpt>
      <trkpt lat="42.514910" lon="-2.371440">
        <ele>474.069</ele>
        <time>2021-01-20T16:25:06Z</time>
      </trkpt>
      <trkpt lat="42.515140" lon="-2.371790">
        <ele>476.063</ele>
        <time>2021-01-20T16:25:26Z</time>
      </trkpt>
      <trkpt lat="42.515240" lon="-2.371220">
        <ele>476.048</ele>
        <time>2021-01-20T14:03:07Z</time>
      </trkpt>
      <trkpt lat="42.515010" lon="-2.371100">
        <ele>473.061</ele>
        <time>2021-01-20T14:03:27Z</time>
      </trkpt>
      <trkpt lat="42.514920" lon="-2.371950">
        <ele>474.017</ele>
        <time>2021-01-20T14:03:47Z</time>
      </trkpt>
      <trkpt lat="42.514850" lon="-2.373180">
        <ele>467.007</ele>
        <time>2021-01-20T14:04:07Z</time>
      </trkpt>
      <trkpt lat="42.514800" lon="-2.373590">
        <ele>462.037</ele>
        <time>2021-01-20T14:04:27Z</time>
      </trkpt>
      <trkpt lat="42.515090" lon="-2.373790">
        <ele>461.044</ele>
        <time>2021-01-20T14:04:47Z</time>
      </trkpt>
      <trkpt lat="42.515230" lon="-2.374340">
        <ele>455.024</ele>
        <time>2021-01-20T14:05:07Z</time>
      </trkpt>
      <trkpt lat="42.515550" lon="-2.374550">
        <ele>456.047</ele>
        <time>2021-01-20T14:05:27Z</time>
      </trkpt>
      <trkpt lat="42.515130" lon="-2.374880">
        <ele>446.080</ele>
        <time>2021-01-20T14:05:47Z</time>
      </trkpt>
      <trkpt lat="42.515140" lon="-2.375900">
        <ele>439.089</ele>
        <time>2021-01-20T14:06:07Z</time>
      </trkpt>
      <trkpt lat="42.514900" lon="-2.375930">
        <ele>437.073</ele>
        <time>2021-01-20T14:06:27Z</time>
      </trkpt>
      <trkpt lat="42.514830" lon="-2.376560">
        <ele>431.054</ele>
        <time>2021-01-20T14:06:47Z</time>
      </trkpt>
      <trkpt lat="42.514420" lon="-2.377130">
        <ele>429.056</ele>
        <time>2021-01-20T14:07:07Z</time>
      </trkpt>
      <trkpt lat="42.513380" lon="-2.377330">
        <ele>428.011</ele>
        <time>2021-01-20T14:07:27Z</time>
      </trkpt>
      <trkpt lat="42.513170" lon="-2.377470">
        <ele>426.007</ele>
        <time>2021-01-20T14:07:47Z</time>
      </trkpt>
      <trkpt lat="42.512790" lon="-2.377560">
        <ele>425.038</ele>
        <time>2021-01-20T14:08:07Z</time>
      </trkpt>
      <trkpt lat="42.512840" lon="-2.379150">
        <ele>424.025</ele>
        <time>2021-01-20T14:08:27Z</time>
      </trkpt>
      <trkpt lat="42.512710" lon="-2.379160">
        <ele>424.075</ele>
        <time>2021-01-20T14:08:47Z</time>
      </trkpt>
      <trkpt lat="42.512650" lon="-2.379270">
        <ele>424.058</ele>
        <time>2021-01-20T14:09:07Z</time>
      </trkpt>
      <trkpt lat="42.512250" lon="-2.379180">
        <ele>424.061</ele>
        <time>2021-01-20T14:09:27Z</time>
      </trkpt>
      <trkpt lat="42.511490" lon="-2.379600">
        <ele>420.030</ele>
        <time>2021-01-20T14:09:47Z</time>
      </trkpt>
      <trkpt lat="42.511210" lon="-2.379380">
        <ele>420.054</ele>
        <time>2021-01-20T14:10:07Z</time>
      </trkpt>
      <trkpt lat="42.510470" lon="-2.379430">
        <ele>420.012</ele>
        <time>2021-01-20T14:10:27Z</time>
      </trkpt>
      <trkpt lat="42.510220" lon="-2.379600">
        <ele>420.032</ele>
        <time>2021-01-20T14:10:47Z</time>
      </trkpt>
      <trkpt lat="42.509940" lon="-2.380080">
        <ele>420.005</ele>
        <time>2021-01-20T14:11:07Z</time>
      </trkpt>
      <trkpt lat="42.509690" lon="-2.381510">
        <ele>416.007</ele>
        <time>2021-01-20T14:11:27Z</time>
      </trkpt>
      <trkpt lat="42.508450" lon="-2.382640">
        <ele>412.084</ele>
        <time>2021-01-20T14:11:47Z</time>
      </trkpt>
      <trkpt lat="42.507640" lon="-2.383110">
        <ele>410.011</ele>
        <time>2021-01-20T14:12:07Z</time>
      </trkpt>
      <trkpt lat="42.507300" lon="-2.383630">
        <ele>408.071</ele>
        <time>2021-01-20T14:12:27Z</time>
      </trkpt>
      <trkpt lat="42.505370" lon="-2.384350">
        <ele>406.084</ele>
        <time>2021-01-20T14:12:47Z</time>
      </trkpt>
      <trkpt lat="42.505070" lon="-2.384880">
        <ele>403.057</ele>
        <time>2021-01-20T14:13:07Z</time>
      </trkpt>
      <trkpt lat="42.503110" lon="-2.386940">
        <ele>400.036</ele>
        <time>2021-01-20T14:13:27Z</time>
      </trkpt>
      <trkpt lat="42.502160" lon="-2.387450">
        <ele>394.020</ele>
        <time>2021-01-20T14:13:47Z</time>
      </trkpt>
      <trkpt lat="42.501880" lon="-2.387900">
        <ele>394.076</ele>
        <time>2021-01-20T14:14:07Z</time>
      </trkpt>
      <trkpt lat="42.501480" lon="-2.388180">
        <ele>393.090</ele>
        <time>2021-01-20T14:14:27Z</time>
      </trkpt>
      <trkpt lat="42.500250" lon="-2.387990">
        <ele>393.019</ele>
        <time>2021-01-20T14:14:47Z</time>
      </trkpt>
      <trkpt lat="42.499390" lon="-2.388590">
        <ele>394.007</ele>
        <time>2021-01-20T14:15:07Z</time>
      </trkpt>
      <trkpt lat="42.498210" lon="-2.388900">
        <ele>392.020</ele>
        <time>2021-01-20T14:15:27Z</time>
      </trkpt>
      <trkpt lat="42.496520" lon="-2.388520">
        <ele>393.097</ele>
        <time>2021-01-20T14:15:47Z</time>
      </trkpt>
      <trkpt lat="42.496020" lon="-2.388820">
        <ele>394.047</ele>
        <time>2021-01-20T14:16:07Z</time>
      </trkpt>
      <trkpt lat="42.495910" lon="-2.389710">
        <ele>401.030</ele>
        <time>2021-01-20T14:16:27Z</time>
      </trkpt>
      <trkpt lat="42.496040" lon="-2.391740">
        <ele>392.013</ele>
        <time>2021-01-20T14:16:47Z</time>
      </trkpt>
      <trkpt lat="42.495800" lon="-2.394190">
        <ele>390.062</ele>
        <time>2021-01-20T14:17:07Z</time>
      </trkpt>
      <trkpt lat="42.495610" lon="-2.394540">
        <ele>389.056</ele>
        <time>2021-01-20T14:17:27Z</time>
      </trkpt>
      <trkpt lat="42.495140" lon="-2.398550">
        <ele>390.095</ele>
        <time>2021-01-20T14:17:47Z</time>
      </trkpt>
      <trkpt lat="42.494790" lon="-2.399630">
        <ele>392.049</ele>
        <time>2021-01-20T14:18:07Z</time>
      </trkpt>
      <trkpt lat="42.494140" lon="-2.400890">
        <ele>398.023</ele>
        <time>2021-01-20T14:18:27Z</time>
      </trkpt>
      <trkpt lat="42.493260" lon="-2.403380">
        <ele>398.007</ele>
        <time>2021-01-20T14:18:47Z</time>
      </trkpt>
      <trkpt lat="42.492830" lon="-2.403940">
        <ele>393.072</ele>
        <time>2021-01-20T14:19:07Z</time>
      </trkpt>
      <trkpt lat="42.490590" lon="-2.404980">
        <ele>387.059</ele>
        <time>2021-01-20T14:19:27Z</time>
      </trkpt>
      <trkpt lat="42.490260" lon="-2.404980">
        <ele>385.099</ele>
        <time>2021-01-20T14:19:47Z</time>
      </trkpt>
      <trkpt lat="42.490090" lon="-2.405300">
        <ele>383.012</ele>
        <time>2021-01-20T14:20:07Z</time>
      </trkpt>
      <trkpt lat="42.490140" lon="-2.407260">
        <ele>384.065</ele>
        <time>2021-01-20T14:20:27Z</time>
      </trkpt>
      <trkpt lat="42.489830" lon="-2.409590">
        <ele>382.034</ele>
        <time>2021-01-20T14:20:47Z</time>
      </trkpt>
      <trkpt lat="42.489220" lon="-2.410880">
        <ele>381.068</ele>
        <time>2021-01-20T14:21:07Z</time>
      </trkpt>
      <trkpt lat="42.490450" lon="-2.413600">
        <ele>383.078</ele>
        <time>2021-01-20T14:21:27Z</time>
      </trkpt>
      <trkpt lat="42.490790" lon="-2.414000">
        <ele>383.033</ele>
        <time>2021-01-20T14:21:47Z</time>
      </trkpt>
      <trkpt lat="42.490950" lon="-2.414490">
        <ele>383.026</ele>
        <time>2021-01-20T14:22:07Z</time>
      </trkpt>
      <trkpt lat="42.489940" lon="-2.418310">
        <ele>388.007</ele>
        <time>2021-01-20T14:22:27Z</time>
      </trkpt>
      <trkpt lat="42.489360" lon="-2.418670">
        <ele>389.060</ele>
        <time>2021-01-20T14:22:47Z</time>
      </trkpt>
      <trkpt lat="42.489120" lon="-2.419230">
        <ele>391.047</ele>
        <time>2021-01-20T14:23:07Z</time>
      </trkpt>
      <trkpt lat="42.489090" lon="-2.420060">
        <ele>394.017</ele>
        <time>2021-01-20T14:23:27Z</time>
      </trkpt>
      <trkpt lat="42.488910" lon="-2.420270">
        <ele>394.030</ele>
        <time>2021-01-20T14:23:47Z</time>
      </trkpt>
      <trkpt lat="42.488550" lon="-2.422100">
        <ele>398.043</ele>
        <time>2021-01-20T14:24:07Z</time>
      </trkpt>
      <trkpt lat="42.486640" lon="-2.426210">
        <ele>418.012</ele>
        <time>2021-01-20T14:24:27Z</time>
      </trkpt>
      <trkpt lat="42.486300" lon="-2.426700">
        <ele>420.046</ele>
        <time>2021-01-20T14:24:47Z</time>
      </trkpt>
      <trkpt lat="42.485550" lon="-2.428620">
        <ele>432.085</ele>
        <time>2021-01-20T14:25:07Z</time>
      </trkpt>
      <trkpt lat="42.484710" lon="-2.431630">
        <ele>431.089</ele>
        <time>2021-01-20T14:25:27Z</time>
      </trkpt>
      <trkpt lat="42.483990" lon="-2.432580">
        <ele>428.017</ele>
        <time>2021-01-20T14:25:47Z</time>
      </trkpt>
      <trkpt lat="42.481990" lon="-2.434580">
        <ele>424.007</ele>
        <time>2021-01-20T14:26:07Z</time>
      </trkpt>
      <trkpt lat="42.479720" lon="-2.435790">
        <ele>409.081</ele>
        <time>2021-01-20T14:26:27Z</time>
      </trkpt>
      <trkpt lat="42.477830" lon="-2.437210">
        <ele>404.088</ele>
        <time>2021-01-20T14:26:47Z</time>
      </trkpt>
      <trkpt lat="42.476950" lon="-2.437640">
        <ele>393.038</ele>
        <time>2021-01-20T14:27:07Z</time>
      </trkpt>
      <trkpt lat="42.476290" lon="-2.439010">
        <ele>380.071</ele>
        <time>2021-01-20T14:27:27Z</time>
      </trkpt>
      <trkpt lat="42.473480" lon="-2.439830">
        <ele>365.044</ele>
        <time>2021-01-20T14:27:47Z</time>
      </trkpt>
      <trkpt lat="42.472660" lon="-2.440350">
        <ele>368.023</ele>
        <time>2021-01-20T14:28:07Z</time>
      </trkpt>
      <trkpt lat="42.471950" lon="-2.441250">
        <ele>370.067</ele>
        <time>2021-01-20T14:28:27Z</time>
      </trkpt>
      <trkpt lat="42.470980" lon="-2.443990">
        <ele>376.093</ele>
        <time>2021-01-20T14:28:47Z</time>
      </trkpt>
      <trkpt lat="42.470810" lon="-2.444130">
        <ele>374.065</ele>
        <time>2021-01-20T14:29:07Z</time>
      </trkpt>
      <trkpt lat="42.468850" lon="-2.443330">
        <ele>378.021</ele>
        <time>2021-01-20T14:29:27Z</time>
      </trkpt>
      <trkpt lat="42.468200" lon="-2.445120">
        <ele>384.007</ele>
        <time>2021-01-20T14:29:47Z</time>
      </trkpt>
      <trkpt lat="42.468250" lon="-2.445360">
        <ele>383.032</ele>
        <time>2021-01-20T14:30:07Z</time>
      </trkpt>
      <trkpt lat="42.467720" lon="-2.446410">
        <ele>384.099</ele>
        <time>2021-01-20T14:30:27Z</time>
      </trkpt>
      <trkpt lat="42.467780" lon="-2.446910">
        <ele>384.029</ele>
        <time>2021-01-20T14:30:47Z</time>
      </trkpt>
      <trkpt lat="42.467590" lon="-2.447480">
        <ele>386.052</ele>
        <time>2021-01-20T14:31:07Z</time>
      </trkpt>
      <trkpt lat="42.467820" lon="-2.447640">
        <ele>384.055</ele>
        <time>2021-01-20T14:31:27Z</time>
      </trkpt>
      <trkpt lat="42.467680" lon="-2.447630">
        <ele>384.034</ele>
        <time>2021-01-20T14:31:47Z</time>
      </trkpt>
      <trkpt lat="42.467610" lon="-2.448400">
        <ele>387.048</ele>
        <time>2021-01-20T14:32:07Z</time>
      </trkpt>
      <trkpt lat="42.466990" lon="-2.449240">
        <ele>395.022</ele>
        <time>2021-01-20T14:32:27Z</time>
      </trkpt>
      <trkpt lat="42.466820" lon="-2.449780">
        <ele>395.062</ele>
        <time>2021-01-20T14:32:47Z</time>
      </trkpt>
      <trkpt lat="42.466970" lon="-2.450020">
        <ele>395.008</ele>
        <time>2021-01-20T14:33:07Z</time>
      </trkpt>
      <trkpt lat="42.466840" lon="-2.450770">
        <ele>397.007</ele>
        <time>2021-01-20T14:33:27Z</time>
      </trkpt>
      <trkpt lat="42.466350" lon="-2.451430">
        <ele>405.015</ele>
        <time>2021-01-20T14:33:47Z</time>
      </trkpt>
      <trkpt lat="42.466110" lon="-2.451530">
        <ele>407.062</ele>
        <time>2021-01-20T14:34:07Z</time>
      </trkpt>
      <trkpt lat="42.465660" lon="-2.452440">
        <ele>406.072</ele>
        <time>2021-01-20T14:34:27Z</time>
      </trkpt>
      <trkpt lat="42.465640" lon="-2.452820">
        <ele>405.065</ele>
        <time>2021-01-20T14:34:47Z</time>
      </trkpt>
      <trkpt lat="42.465510" lon="-2.453620">
        <ele>402.068</ele>
        <time>2021-01-20T14:35:07Z</time>
      </trkpt>
      <trkpt lat="42.465320" lon="-2.454510">
        <ele>403.067</ele>
        <time>2021-01-20T14:35:27Z</time>
      </trkpt>
      <trkpt lat="42.465230" lon="-2.455070">
        <ele>403.021</ele>
        <time>2021-01-20T14:35:47Z</time>
      </trkpt>
      <trkpt lat="42.465160" lon="-2.454890">
        <ele>403.073</ele>
        <time>2021-01-20T14:36:07Z</time>
      </trkpt>
      <trkpt lat="42.464720" lon="-2.456490">
        <ele>398.085</ele>
        <time>2021-01-20T14:36:27Z</time>
      </trkpt>
      <trkpt lat="42.464790" lon="-2.457110">
        <ele>395.013</ele>
        <time>2021-01-20T14:36:47Z</time>
      </trkpt>
      <trkpt lat="42.463430" lon="-2.457020">
        <ele>397.007</ele>
        <time>2021-01-20T14:37:07Z</time>
      </trkpt>
      <trkpt lat="42.463310" lon="-2.457170">
        <ele>398.080</ele>
        <time>2021-01-20T14:37:27Z</time>
      </trkpt>
      <trkpt lat="42.463100" lon="-2.457170">
        <ele>398.057</ele>
        <time>2021-01-20T14:37:47Z</time>
      </trkpt>
      <trkpt lat="42.462960" lon="-2.457310">
        <ele>398.057</ele>
        <time>2021-01-20T14:38:07Z</time>
      </trkpt>
      <trkpt lat="42.462300" lon="-2.459820">
        <ele>397.050</ele>
        <time>2021-01-20T14:38:27Z</time>
      </trkpt>
      <trkpt lat="42.462400" lon="-2.460050">
        <ele>396.023</ele>
        <time>2021-01-20T14:38:47Z</time>
      </trkpt>
      <trkpt lat="42.463780" lon="-2.460210">
        <ele>394.022</ele>
        <time>2021-01-20T14:39:07Z</time>
      </trkpt>
      <trkpt lat="42.463580" lon="-2.461840">
        <ele>402.016</ele>
        <time>2021-01-20T14:39:27Z</time>
      </trkpt>
      <trkpt lat="42.463360" lon="-2.461930">
        <ele>401.035</ele>
        <time>2021-01-20T14:39:47Z</time>
      </trkpt>
      <trkpt lat="42.462110" lon="-2.461520">
        <ele>398.086</ele>
        <time>2021-01-20T14:40:07Z</time>
      </trkpt>
      <trkpt lat="42.462040" lon="-2.461690">
        <ele>400.014</ele>
        <time>2021-01-20T14:40:27Z</time>
      </trkpt>
      <trkpt lat="42.461160" lon="-2.461250">
        <ele>401.007</ele>
        <time>2021-01-20T14:40:47Z</time>
      </trkpt>
      <trkpt lat="42.460860" lon="-2.462030">
        <ele>402.096</ele>
        <time>2021-01-20T14:41:07Z</time>
      </trkpt>
      <trkpt lat="42.460640" lon="-2.462190">
        <ele>402.053</ele>
        <time>2021-01-20T14:41:27Z</time>
      </trkpt>
      <trkpt lat="42.460400" lon="-2.462020">
        <ele>401.053</ele>
        <time>2021-01-20T14:41:47Z</time>
      </trkpt>
      <trkpt lat="42.460190" lon="-2.462280">
        <ele>401.086</ele>
        <time>2021-01-20T14:42:07Z</time>
      </trkpt>
      <trkpt lat="42.459140" lon="-2.466940">
        <ele>407.099</ele>
        <time>2021-01-20T14:42:27Z</time>
      </trkpt>
      <trkpt lat="42.459140" lon="-2.467550">
        <ele>409.068</ele>
        <time>2021-01-20T14:42:47Z</time>
      </trkpt>
      <trkpt lat="42.458920" lon="-2.467960">
        <ele>411.062</ele>
        <time>2021-01-20T14:43:07Z</time>
      </trkpt>
      <trkpt lat="42.458300" lon="-2.468040">
        <ele>410.091</ele>
        <time>2021-01-20T14:43:27Z</time>
      </trkpt>
      <trkpt lat="42.458330" lon="-2.470030">
        <ele>409.081</ele>
        <time>2021-01-20T14:43:47Z</time>
      </trkpt>
      <trkpt lat="42.457210" lon="-2.472900">
        <ele>411.019</ele>
        <time>2021-01-20T14:44:07Z</time>
      </trkpt>
      <trkpt lat="42.456990" lon="-2.472830">
        <ele>410.007</ele>
        <time>2021-01-20T14:44:27Z</time>
      </trkpt>
      <trkpt lat="42.456670" lon="-2.473120">
        <ele>409.092</ele>
        <time>2021-01-20T14:44:47Z</time>
      </trkpt>
      <trkpt lat="42.456450" lon="-2.473850">
        <ele>409.049</ele>
        <time>2021-01-20T14:45:07Z</time>
      </trkpt>
      <trkpt lat="42.456360" lon="-2.474780">
        <ele>410.089</ele>
        <time>2021-01-20T14:45:27Z</time>
      </trkpt>
      <trkpt lat="42.455730" lon="-2.477430">
        <ele>410.092</ele>
        <time>2021-01-20T14:45:47Z</time>
      </trkpt>
      <trkpt lat="42.455380" lon="-2.477510">
        <ele>406.065</ele>
        <time>2021-01-20T14:46:07Z</time>
      </trkpt>
      <trkpt lat="42.455030" lon="-2.479420">
        <ele>408.014</ele>
        <time>2021-01-20T14:46:27Z</time>
      </trkpt>
      <trkpt lat="42.453550" lon="-2.482930">
        <ele>408.058</ele>
        <time>2021-01-20T14:46:47Z</time>
      </trkpt>
      <trkpt lat="42.453020" lon="-2.486780">
        <ele>409.053</ele>
        <time>2021-01-20T14:47:07Z</time>
      </trkpt>
      <trkpt lat="42.451680" lon="-2.490190">
        <ele>414.004</ele>
        <time>2021-01-20T14:47:27Z</time>
      </trkpt>
      <trkpt lat="42.450310" lon="-2.495050">
        <ele>420.014</ele>
        <time>2021-01-20T14:47:47Z</time>
      </trkpt>
      <trkpt lat="42.450070" lon="-2.494950">
        <ele>421.007</ele>
        <time>2021-01-20T14:48:07Z</time>
      </trkpt>
      <trkpt lat="42.449940" lon="-2.495200">
        <ele>422.018</ele>
        <time>2021-01-20T14:48:27Z</time>
      </trkpt>
      <trkpt lat="42.449810" lon="-2.497720">
        <ele>423.045</ele>
        <time>2021-01-20T14:48:47Z</time>
      </trkpt>
      <trkpt lat="42.448910" lon="-2.498210">
        <ele>425.065</ele>
        <time>2021-01-20T14:49:07Z</time>
      </trkpt>
      <trkpt lat="42.448110" lon="-2.499740">
        <ele>429.078</ele>
        <time>2021-01-20T14:49:27Z</time>
      </trkpt>
      <trkpt lat="42.447570" lon="-2.499980">
        <ele>434.091</ele>
        <time>2021-01-20T14:49:47Z</time>
      </trkpt>
      <trkpt lat="42.447110" lon="-2.500580">
        <ele>434.040</ele>
        <time>2021-01-20T14:50:07Z</time>
      </trkpt>
      <trkpt lat="42.448130" lon="-2.503470">
        <ele>436.054</ele>
        <time>2021-01-20T14:50:27Z</time>
      </trkpt>
      <trkpt lat="42.447890" lon="-2.503800">
        <ele>439.014</ele>
        <time>2021-01-20T14:50:47Z</time>
      </trkpt>
      <trkpt lat="42.447330" lon="-2.503900">
        <ele>438.054</ele>
        <time>2021-01-20T14:51:07Z</time>
      </trkpt>
      <trkpt lat="42.447140" lon="-2.504950">
        <ele>440.009</ele>
        <time>2021-01-20T14:51:27Z</time>
      </trkpt>
      <trkpt lat="42.446800" lon="-2.505280">
        <ele>437.007</ele>
        <time>2021-01-20T14:51:47Z</time>
      </trkpt>
      <trkpt lat="42.446750" lon="-2.506840">
        <ele>437.014</ele>
        <time>2021-01-20T14:52:07Z</time>
      </trkpt>
      <trkpt lat="42.446340" lon="-2.509240">
        <ele>436.031</ele>
        <time>2021-01-20T14:52:27Z</time>
      </trkpt>
      <trkpt lat="42.446030" lon="-2.510140">
        <ele>436.061</ele>
        <time>2021-01-20T14:52:47Z</time>
      </trkpt>
      <trkpt lat="42.446030" lon="-2.510790">
        <ele>436.064</ele>
        <time>2021-01-20T14:53:07Z</time>
      </trkpt>
      <trkpt lat="42.444650" lon="-2.513380">
        <ele>446.037</ele>
        <time>2021-01-20T14:53:27Z</time>
      </trkpt>
      <trkpt lat="42.444380" lon="-2.513220">
        <ele>447.046</ele>
        <time>2021-01-20T14:53:47Z</time>
      </trkpt>
      <trkpt lat="42.444130" lon="-2.512300">
        <ele>442.080</ele>
        <time>2021-01-20T14:54:07Z</time>
      </trkpt>
      <trkpt lat="42.443880" lon="-2.512150">
        <ele>442.085</ele>
        <time>2021-01-20T14:54:27Z</time>
      </trkpt>
      <trkpt lat="42.443400" lon="-2.513000">
        <ele>448.089</ele>
        <time>2021-01-20T14:54:47Z</time>
      </trkpt>
      <trkpt lat="42.443120" lon="-2.513220">
        <ele>450.017</ele>
        <time>2021-01-20T14:55:07Z</time>
      </trkpt>
      <trkpt lat="42.442130" lon="-2.513210">
        <ele>447.007</ele>
        <time>2021-01-20T14:55:27Z</time>
      </trkpt>
      <trkpt lat="42.441350" lon="-2.513480">
        <ele>443.011</ele>
        <time>2021-01-20T14:55:47Z</time>
      </trkpt>
      <trkpt lat="42.441570" lon="-2.514700">
        <ele>446.018</ele>
        <time>2021-01-20T14:56:07Z</time>
      </trkpt>
      <trkpt lat="42.439800" lon="-2.514960">
        <ele>453.048</ele>
        <time>2021-01-20T14:56:27Z</time>
      </trkpt>
      <trkpt lat="42.439090" lon="-2.515330">
        <ele>457.051</ele>
        <time>2021-01-20T14:56:47Z</time>
      </trkpt>
      <trkpt lat="42.438210" lon="-2.514590">
        <ele>454.034</ele>
        <time>2021-01-20T14:57:07Z</time>
      </trkpt>
      <trkpt lat="42.437720" lon="-2.514500">
        <ele>454.053</ele>
        <time>2021-01-20T14:57:27Z</time>
      </trkpt>
      <trkpt lat="42.437120" lon="-2.515570">
        <ele>464.067</ele>
        <time>2021-01-20T14:57:47Z</time>
      </trkpt>
      <trkpt lat="42.436770" lon="-2.515910">
        <ele>472.067</ele>
        <time>2021-01-20T14:58:07Z</time>
      </trkpt>
      <trkpt lat="42.436570" lon="-2.516380">
        <ele>475.081</ele>
        <time>2021-01-20T14:58:27Z</time>
      </trkpt>
      <trkpt lat="42.437680" lon="-2.517970">
        <ele>480.019</ele>
        <time>2021-01-20T14:58:47Z</time>
      </trkpt>
      <trkpt lat="42.438180" lon="-2.519390">
        <ele>492.007</ele>
        <time>2021-01-20T14:59:07Z</time>
      </trkpt>
      <trkpt lat="42.439950" lon="-2.523320">
        <ele>509.079</ele>
        <time>2021-01-20T14:59:27Z</time>
      </trkpt>
      <trkpt lat="42.440080" lon="-2.524020">
        <ele>510.076</ele>
        <time>2021-01-20T14:59:47Z</time>
      </trkpt>
      <trkpt lat="42.439570" lon="-2.529120">
        <ele>508.096</ele>
        <time>2021-01-20T15:00:07Z</time>
      </trkpt>
      <trkpt lat="42.438890" lon="-2.532030">
        <ele>501.059</ele>
        <time>2021-01-20T15:00:27Z</time>
      </trkpt>
      <trkpt lat="42.438500" lon="-2.535530">
        <ele>494.052</ele>
        <time>2021-01-20T15:00:47Z</time>
      </trkpt>
      <trkpt lat="42.437960" lon="-2.537100">
        <ele>492.051</ele>
        <time>2021-01-20T15:01:07Z</time>
      </trkpt>
      <trkpt lat="42.437980" lon="-2.537500">
        <ele>492.085</ele>
        <time>2021-01-20T15:01:27Z</time>
      </trkpt>
      <trkpt lat="42.437390" lon="-2.539660">
        <ele>491.059</ele>
        <time>2021-01-20T15:01:47Z</time>
      </trkpt>
      <trkpt lat="42.436900" lon="-2.540700">
        <ele>487.003</ele>
        <time>2021-01-20T15:02:07Z</time>
      </trkpt>
      <trkpt lat="42.436340" lon="-2.542850">
        <ele>475.023</ele>
        <time>2021-01-20T15:02:27Z</time>
      </trkpt>
      <trkpt lat="42.435560" lon="-2.548030">
        <ele>470.007</ele>
        <time>2021-01-20T15:02:47Z</time>
      </trkpt>
      <trkpt lat="42.435590" lon="-2.548600">
        <ele>470.038</ele>
        <time>2021-01-20T15:03:07Z</time>
      </trkpt>
      <trkpt lat="42.435860" lon="-2.549320">
        <ele>469.065</ele>
        <time>2021-01-20T15:03:27Z</time>
      </trkpt>
      <trkpt lat="42.435840" lon="-2.549840">
        <ele>468.025</ele>
        <time>2021-01-20T15:03:47Z</time>
      </trkpt>
      <trkpt lat="42.435150" lon="-2.550700">
        <ele>467.078</ele>
        <time>2021-01-20T15:04:07Z</time>
      </trkpt>
      <trkpt lat="42.432570" lon="-2.559110">
        <ele>493.091</ele>
        <time>2021-01-20T15:04:27Z</time>
      </trkpt>
      <trkpt lat="42.432830" lon="-2.559460">
        <ele>494.030</ele>
        <time>2021-01-20T15:04:47Z</time>
      </trkpt>
      <trkpt lat="42.430750" lon="-2.558920">
        <ele>501.064</ele>
        <time>2021-01-20T15:05:07Z</time>
      </trkpt>
      <trkpt lat="42.429980" lon="-2.559000">
        <ele>504.055</ele>
        <time>2021-01-20T15:05:27Z</time>
      </trkpt>
      <trkpt lat="42.429610" lon="-2.559280">
        <ele>506.007</ele>
        <time>2021-01-20T15:05:47Z</time>
      </trkpt>
      <trkpt lat="42.429240" lon="-2.560220">
        <ele>508.017</ele>
        <time>2021-01-20T15:06:07Z</time>
      </trkpt>
      <trkpt lat="42.429070" lon="-2.561590">
        <ele>510.007</ele>
        <time>2021-01-20T15:06:27Z</time>
      </trkpt>
      <trkpt lat="42.429410" lon="-2.561580">
        <ele>513.048</ele>
        <time>2021-01-20T15:06:47Z</time>
      </trkpt>
      <trkpt lat="42.429590" lon="-2.562210">
        <ele>516.045</ele>
        <time>2021-01-20T15:07:07Z</time>
      </trkpt>
      <trkpt lat="42.430770" lon="-2.563050">
        <ele>518.055</ele>
        <time>2021-01-20T15:07:27Z</time>
      </trkpt>
      <trkpt lat="42.430740" lon="-2.564240">
        <ele>508.038</ele>
        <time>2021-01-20T15:07:47Z</time>
      </trkpt>
      <trkpt lat="42.430110" lon="-2.568080">
        <ele>504.011</ele>
        <time>2021-01-20T15:08:07Z</time>
      </trkpt>
      <trkpt lat="42.425960" lon="-2.576810">
        <ele>518.030</ele>
        <time>2021-01-20T15:08:27Z</time>
      </trkpt>
      <trkpt lat="42.424770" lon="-2.578150">
        <ele>521.014</ele>
        <time>2021-01-20T15:08:47Z</time>
      </trkpt>
      <trkpt lat="42.421980" lon="-2.580250">
        <ele>533.086</ele>
        <time>2021-01-20T15:09:07Z</time>
      </trkpt>
      <trkpt lat="42.420740" lon="-2.581910">
        <ele>539.060</ele>
        <time>2021-01-20T15:09:27Z</time>
      </trkpt>
      <trkpt lat="42.419680" lon="-2.582830">
        <ele>543.026</ele>
        <time>2021-01-20T15:09:47Z</time>
      </trkpt>
      <trkpt lat="42.418680" lon="-2.584630">
        <ele>548.007</ele>
        <time>2021-01-20T15:10:07Z</time>
      </trkpt>
      <trkpt lat="42.416430" lon="-2.586940">
        <ele>560.021</ele>
        <time>2021-01-20T15:10:27Z</time>
      </trkpt>
      <trkpt lat="42.415070" lon="-2.587740">
        <ele>569.098</ele>
        <time>2021-01-20T15:10:47Z</time>
      </trkpt>
      <trkpt lat="42.415200" lon="-2.588960">
        <ele>568.038</ele>
        <time>2021-01-20T15:11:07Z</time>
      </trkpt>
      <trkpt lat="42.414880" lon="-2.592260">
        <ele>577.071</ele>
        <time>2021-01-20T15:11:27Z</time>
      </trkpt>
      <trkpt lat="42.414700" lon="-2.592880">
        <ele>578.054</ele>
        <time>2021-01-20T15:11:47Z</time>
      </trkpt>
      <trkpt lat="42.414670" lon="-2.594000">
        <ele>577.073</ele>
        <time>2021-01-20T15:12:07Z</time>
      </trkpt>
      <trkpt lat="42.414830" lon="-2.594530">
        <ele>574.077</ele>
        <time>2021-01-20T15:12:27Z</time>
      </trkpt>
      <trkpt lat="42.416110" lon="-2.596590">
        <ele>562.083</ele>
        <time>2021-01-20T15:12:47Z</time>
      </trkpt>
      <trkpt lat="42.416490" lon="-2.597990">
        <ele>561.025</ele>
        <time>2021-01-20T15:13:07Z</time>
      </trkpt>
      <trkpt lat="42.417140" lon="-2.598230">
        <ele>558.017</ele>
        <time>2021-01-20T15:13:27Z</time>
      </trkpt>
      <trkpt lat="42.415830" lon="-2.601210">
        <ele>564.007</ele>
        <time>2021-01-20T15:13:47Z</time>
      </trkpt>
      <trkpt lat="42.413040" lon="-2.609070">
        <ele>584.011</ele>
        <time>2021-01-20T15:14:07Z</time>
      </trkpt>
      <trkpt lat="42.412310" lon="-2.612600">
        <ele>590.048</ele>
        <time>2021-01-20T15:14:27Z</time>
      </trkpt>
      <trkpt lat="42.412180" lon="-2.614130">
        <ele>595.018</ele>
        <time>2021-01-20T15:14:47Z</time>
      </trkpt>
      <trkpt lat="42.411480" lon="-2.614330">
        <ele>595.011</ele>
        <time>2021-01-20T15:15:07Z</time>
      </trkpt>
      <trkpt lat="42.410980" lon="-2.615860">
        <ele>597.084</ele>
        <time>2021-01-20T15:15:27Z</time>
      </trkpt>
      <trkpt lat="42.410210" lon="-2.617220">
        <ele>607.053</ele>
        <time>2021-01-20T15:15:47Z</time>
      </trkpt>
      <trkpt lat="42.409810" lon="-2.618770">
        <ele>609.077</ele>
        <time>2021-01-20T15:16:07Z</time>
      </trkpt>
      <trkpt lat="42.409360" lon="-2.619280">
        <ele>608.055</ele>
        <time>2021-01-20T15:16:27Z</time>
      </trkpt>
      <trkpt lat="42.408730" lon="-2.620580">
        <ele>612.007</ele>
        <time>2021-01-20T15:16:47Z</time>
      </trkpt>
      <trkpt lat="42.408570" lon="-2.621350">
        <ele>617.017</ele>
        <time>2021-01-20T15:17:07Z</time>
      </trkpt>
      <trkpt lat="42.407870" lon="-2.622450">
        <ele>620.007</ele>
        <time>2021-01-20T15:17:27Z</time>
      </trkpt>
      <trkpt lat="42.406250" lon="-2.623750">
        <ele>627.088</ele>
        <time>2021-01-20T15:17:47Z</time>
      </trkpt>
      <trkpt lat="42.405450" lon="-2.624930">
        <ele>634.085</ele>
        <time>2021-01-20T15:18:07Z</time>
      </trkpt>
      <trkpt lat="42.405180" lon="-2.625960">
        <ele>640.015</ele>
        <time>2021-01-20T15:18:27Z</time>
      </trkpt>
      <trkpt lat="42.405700" lon="-2.626020">
        <ele>635.038</ele>
        <time>2021-01-20T15:18:47Z</time>
      </trkpt>
      <trkpt lat="42.406510" lon="-2.626940">
        <ele>629.051</ele>
        <time>2021-01-20T15:19:07Z</time>
      </trkpt>
      <trkpt lat="42.408170" lon="-2.628350">
        <ele>618.070</ele>
        <time>2021-01-20T15:19:27Z</time>
      </trkpt>
      <trkpt lat="42.408540" lon="-2.631330">
        <ele>623.034</ele>
        <time>2021-01-20T15:19:47Z</time>
      </trkpt>
      <trkpt lat="42.409860" lon="-2.632630">
        <ele>618.094</ele>
        <time>2021-01-20T15:20:07Z</time>
      </trkpt>
      <trkpt lat="42.410310" lon="-2.633450">
        <ele>620.057</ele>
        <time>2021-01-20T15:20:27Z</time>
      </trkpt>
      <trkpt lat="42.410960" lon="-2.633960">
        <ele>622.022</ele>
        <time>2021-01-20T15:20:47Z</time>
      </trkpt>
      <trkpt lat="42.411250" lon="-2.634500">
        <ele>625.007</ele>
        <time>2021-01-20T15:21:07Z</time>
      </trkpt>
      <trkpt lat="42.411520" lon="-2.636670">
        <ele>628.012</ele>
        <time>2021-01-20T15:21:27Z</time>
      </trkpt>
      <trkpt lat="42.411330" lon="-2.640200">
        <ele>641.059</ele>
        <time>2021-01-20T15:21:47Z</time>
      </trkpt>
      <trkpt lat="42.411390" lon="-2.641840">
        <ele>659.099</ele>
        <time>2021-01-20T15:22:07Z</time>
      </trkpt>
      <trkpt lat="42.411740" lon="-2.642490">
        <ele>665.012</ele>
        <time>2021-01-20T15:22:27Z</time>
      </trkpt>
      <trkpt lat="42.411960" lon="-2.642620">
        <ele>665.095</ele>
        <time>2021-01-20T15:22:47Z</time>
      </trkpt>
      <trkpt lat="42.412480" lon="-2.643960">
        <ele>661.034</ele>
        <time>2021-01-20T15:23:07Z</time>
      </trkpt>
      <trkpt lat="42.412670" lon="-2.648540">
        <ele>631.068</ele>
        <time>2021-01-20T15:23:27Z</time>
      </trkpt>
      <trkpt lat="42.412040" lon="-2.649470">
        <ele>617.037</ele>
        <time>2021-01-20T15:23:47Z</time>
      </trkpt>
      <trkpt lat="42.411400" lon="-2.650010">
        <ele>612.049</ele>
        <time>2021-01-20T15:24:07Z</time>
      </trkpt>
      <trkpt lat="42.411140" lon="-2.650620">
        <ele>612.013</ele>
        <time>2021-01-20T15:24:27Z</time>
      </trkpt>
      <trkpt lat="42.411220" lon="-2.650770">
        <ele>612.007</ele>
        <time>2021-01-20T15:24:47Z</time>
      </trkpt>
      <trkpt lat="42.410930" lon="-2.651930">
        <ele>616.086</ele>
        <time>2021-01-20T15:25:07Z</time>
      </trkpt>
      <trkpt lat="42.410930" lon="-2.653140">
        <ele>617.033</ele>
        <time>2021-01-20T15:25:27Z</time>
      </trkpt>
      <trkpt lat="42.410750" lon="-2.653720">
        <ele>616.073</ele>
        <time>2021-01-20T15:25:47Z</time>
      </trkpt>
      <trkpt lat="42.410690" lon="-2.654650">
        <ele>620.086</ele>
        <time>2021-01-20T15:26:07Z</time>
      </trkpt>
      <trkpt lat="42.411330" lon="-2.659840">
        <ele>607.029</ele>
        <time>2021-01-20T15:26:27Z</time>
      </trkpt>
      <trkpt lat="42.411420" lon="-2.663270">
        <ele>608.038</ele>
        <time>2021-01-20T15:26:47Z</time>
      </trkpt>
      <trkpt lat="42.411680" lon="-2.664010">
        <ele>605.042</ele>
        <time>2021-01-20T15:27:07Z</time>
      </trkpt>
      <trkpt lat="42.412310" lon="-2.668190">
        <ele>595.062</ele>
        <time>2021-01-20T15:27:27Z</time>
      </trkpt>
      <trkpt lat="42.413220" lon="-2.671220">
        <ele>580.083</ele>
        <time>2021-01-20T15:27:47Z</time>
      </trkpt>
      <trkpt lat="42.413690" lon="-2.674740">
        <ele>584.011</ele>
        <time>2021-01-20T15:28:07Z</time>
      </trkpt>
      <trkpt lat="42.414060" lon="-2.675770">
        <ele>581.007</ele>
        <time>2021-01-20T15:28:27Z</time>
      </trkpt>
      <trkpt lat="42.414900" lon="-2.677420">
        <ele>575.079</ele>
        <time>2021-01-20T15:28:47Z</time>
      </trkpt>
      <trkpt lat="42.415010" lon="-2.678150">
        <ele>576.086</ele>
        <time>2021-01-20T15:29:07Z</time>
      </trkpt>
      <trkpt lat="42.414480" lon="-2.680590">
        <ele>571.036</ele>
        <time>2021-01-20T15:29:27Z</time>
      </trkpt>
      <trkpt lat="42.414260" lon="-2.683250">
        <ele>561.079</ele>
        <time>2021-01-20T15:29:47Z</time>
      </trkpt>
      <trkpt lat="42.413450" lon="-2.686350">
        <ele>554.042</ele>
        <time>2021-01-20T15:30:07Z</time>
      </trkpt>
      <trkpt lat="42.413250" lon="-2.692190">
        <ele>546.081</ele>
        <time>2021-01-20T15:30:27Z</time>
      </trkpt>
      <trkpt lat="42.413540" lon="-2.693790">
        <ele>538.085</ele>
        <time>2021-01-20T15:30:47Z</time>
      </trkpt>
      <trkpt lat="42.414150" lon="-2.694990">
        <ele>535.053</ele>
        <time>2021-01-20T15:31:07Z</time>
      </trkpt>
      <trkpt lat="42.414120" lon="-2.697050">
        <ele>535.004</ele>
        <time>2021-01-20T15:31:27Z</time>
      </trkpt>
      <trkpt lat="42.414450" lon="-2.698130">
        <ele>533.014</ele>
        <time>2021-01-20T15:31:47Z</time>
      </trkpt>
      <trkpt lat="42.414330" lon="-2.698510">
        <ele>532.007</ele>
        <time>2021-01-20T15:32:07Z</time>
      </trkpt>
      <trkpt lat="42.415390" lon="-2.699440">
        <ele>529.028</ele>
        <time>2021-01-20T15:32:27Z</time>
      </trkpt>
      <trkpt lat="42.416050" lon="-2.699670">
        <ele>527.065</ele>
        <time>2021-01-20T15:32:47Z</time>
      </trkpt>
      <trkpt lat="42.416110" lon="-2.699960">
        <ele>527.045</ele>
        <time>2021-01-20T15:33:07Z</time>
      </trkpt>
      <trkpt lat="42.415690" lon="-2.700440">
        <ele>526.048</ele>
        <time>2021-01-20T15:33:27Z</time>
      </trkpt>
      <trkpt lat="42.415410" lon="-2.702710">
        <ele>523.081</ele>
        <time>2021-01-20T15:33:47Z</time>
      </trkpt>
      <trkpt lat="42.415670" lon="-2.704470">
        <ele>525.030</ele>
        <time>2021-01-20T15:34:07Z</time>
      </trkpt>
      <trkpt lat="42.416080" lon="-2.709830">
        <ele>529.034</ele>
        <time>2021-01-20T15:34:27Z</time>
      </trkpt>
      <trkpt lat="42.417170" lon="-2.714790">
        <ele>517.094</ele>
        <time>2021-01-20T15:34:47Z</time>
      </trkpt>
      <trkpt lat="42.417690" lon="-2.715420">
        <ele>513.057</ele>
        <time>2021-01-20T15:35:07Z</time>
      </trkpt>
      <trkpt lat="42.417580" lon="-2.715960">
        <ele>513.022</ele>
        <time>2021-01-20T15:35:27Z</time>
      </trkpt>
      <trkpt lat="42.418510" lon="-2.719460">
        <ele>509.007</ele>
        <time>2021-01-20T15:35:47Z</time>
      </trkpt>
      <trkpt lat="42.418640" lon="-2.721090">
        <ele>513.072</ele>
        <time>2021-01-20T15:36:07Z</time>
      </trkpt>
      <trkpt lat="42.418400" lon="-2.724930">
        <ele>505.059</ele>
        <time>2021-01-20T15:36:27Z</time>
      </trkpt>
      <trkpt lat="42.418580" lon="-2.725350">
        <ele>506.059</ele>
        <time>2021-01-20T15:36:47Z</time>
      </trkpt>
      <trkpt lat="42.417760" lon="-2.729330">
        <ele>495.012</ele>
        <time>2021-01-20T15:37:07Z</time>
      </trkpt>
      <trkpt lat="42.417020" lon="-2.731020">
        <ele>492.075</ele>
        <time>2021-01-20T15:37:27Z</time>
      </trkpt>
      <trkpt lat="42.417350" lon="-2.731820">
        <ele>489.064</ele>
        <time>2021-01-20T15:37:47Z</time>
      </trkpt>
      <trkpt lat="42.417520" lon="-2.733320">
        <ele>486.028</ele>
        <time>2021-01-20T15:38:07Z</time>
      </trkpt>
      <trkpt lat="42.417630" lon="-2.733440">
        <ele>486.083</ele>
        <time>2021-01-20T15:38:27Z</time>
      </trkpt>
      <trkpt lat="42.416600" lon="-2.734180">
        <ele>492.025</ele>
        <time>2021-01-20T15:38:47Z</time>
      </trkpt>
      <trkpt lat="42.416690" lon="-2.735230">
        <ele>497.017</ele>
        <time>2021-01-20T15:39:07Z</time>
      </trkpt>
      <trkpt lat="42.415940" lon="-2.735310">
        <ele>497.007</ele>
        <time>2021-01-20T15:39:27Z</time>
      </trkpt>
      <trkpt lat="42.415810" lon="-2.736550">
        <ele>505.021</ele>
        <time>2021-01-20T15:39:47Z</time>
      </trkpt>
      <trkpt lat="42.415960" lon="-2.737190">
        <ele>507.048</ele>
        <time>2021-01-20T15:40:07Z</time>
      </trkpt>
      <trkpt lat="42.415930" lon="-2.737840">
        <ele>508.048</ele>
        <time>2021-01-20T15:40:27Z</time>
      </trkpt>
      <trkpt lat="42.415410" lon="-2.739600">
        <ele>515.011</ele>
        <time>2021-01-20T15:40:47Z</time>
      </trkpt>
      <trkpt lat="42.414630" lon="-2.741010">
        <ele>528.044</ele>
        <time>2021-01-20T15:41:07Z</time>
      </trkpt>
      <trkpt lat="42.414120" lon="-2.742580">
        <ele>534.083</ele>
        <time>2021-01-20T15:41:27Z</time>
      </trkpt>
      <trkpt lat="42.414100" lon="-2.743060">
        <ele>537.057</ele>
        <time>2021-01-20T15:41:47Z</time>
      </trkpt>
      <trkpt lat="42.414280" lon="-2.743540">
        <ele>541.088</ele>
        <time>2021-01-20T15:42:07Z</time>
      </trkpt>
      <trkpt lat="42.414450" lon="-2.745480">
        <ele>543.024</ele>
        <time>2021-01-20T15:42:27Z</time>
      </trkpt>
      <trkpt lat="42.415330" lon="-2.748290">
        <ele>541.026</ele>
        <time>2021-01-20T15:42:47Z</time>
      </trkpt>
      <trkpt lat="42.415640" lon="-2.750540">
        <ele>534.007</ele>
        <time>2021-01-20T15:43:07Z</time>
      </trkpt>
      <trkpt lat="42.416180" lon="-2.751370">
        <ele>523.081</ele>
        <time>2021-01-20T15:43:27Z</time>
      </trkpt>
      <trkpt lat="42.416370" lon="-2.752080">
        <ele>518.058</ele>
        <time>2021-01-20T15:43:47Z</time>
      </trkpt>
      <trkpt lat="42.416150" lon="-2.754570">
        <ele>510.078</ele>
        <time>2021-01-20T15:44:07Z</time>
      </trkpt>
      <trkpt lat="42.416000" lon="-2.759070">
        <ele>526.011</ele>
        <time>2021-01-20T15:44:27Z</time>
      </trkpt>
      <trkpt lat="42.416450" lon="-2.760380">
        <ele>533.094</ele>
        <time>2021-01-20T15:44:47Z</time>
      </trkpt>
      <trkpt lat="42.417430" lon="-2.765380">
        <ele>542.063</ele>
        <time>2021-01-20T15:45:07Z</time>
      </trkpt>
      <trkpt lat="42.418070" lon="-2.770870">
        <ele>542.077</ele>
        <time>2021-01-20T15:45:27Z</time>
      </trkpt>
      <trkpt lat="42.419310" lon="-2.775660">
        <ele>546.028</ele>
        <time>2021-01-20T15:45:47Z</time>
      </trkpt>
      <trkpt lat="42.419810" lon="-2.778220">
        <ele>542.089</ele>
        <time>2021-01-20T15:46:07Z</time>
      </trkpt>
      <trkpt lat="42.419920" lon="-2.779470">
        <ele>545.017</ele>
        <time>2021-01-20T15:46:27Z</time>
      </trkpt>
      <trkpt lat="42.420240" lon="-2.780920">
        <ele>546.007</ele>
        <time>2021-01-20T15:46:47Z</time>
      </trkpt>
      <trkpt lat="42.420220" lon="-2.782470">
        <ele>541.085</ele>
        <time>2021-01-20T15:47:07Z</time>
      </trkpt>
      <trkpt lat="42.420760" lon="-2.788930">
        <ele>543.022</ele>
        <time>2021-01-20T15:47:27Z</time>
      </trkpt>
      <trkpt lat="42.422300" lon="-2.793210">
        <ele>538.092</ele>
        <time>2021-01-20T15:47:47Z</time>
      </trkpt>
      <trkpt lat="42.423330" lon="-2.798710">
        <ele>551.045</ele>
        <time>2021-01-20T15:48:07Z</time>
      </trkpt>
      <trkpt lat="42.424810" lon="-2.802650">
        <ele>536.098</ele>
        <time>2021-01-20T15:48:27Z</time>
      </trkpt>
      <trkpt lat="42.425870" lon="-2.803860">
        <ele>535.067</ele>
        <time>2021-01-20T15:48:47Z</time>
      </trkpt>
      <trkpt lat="42.426170" lon="-2.803760">
        <ele>535.011</ele>
        <time>2021-01-20T15:49:07Z</time>
      </trkpt>
      <trkpt lat="42.425920" lon="-2.803730">
        <ele>535.086</ele>
        <time>2021-01-20T15:49:27Z</time>
      </trkpt>
      <trkpt lat="42.426340" lon="-2.807870">
        <ele>539.060</ele>
        <time>2021-01-20T15:49:47Z</time>
      </trkpt>
      <trkpt lat="42.427130" lon="-2.810600">
        <ele>548.026</ele>
        <time>2021-01-20T15:50:07Z</time>
      </trkpt>
      <trkpt lat="42.428360" lon="-2.813510">
        <ele>556.007</ele>
        <time>2021-01-20T15:50:27Z</time>
      </trkpt>
      <trkpt lat="42.429420" lon="-2.817050">
        <ele>564.091</ele>
        <time>2021-01-20T15:50:47Z</time>
      </trkpt>
      <trkpt lat="42.429920" lon="-2.818050">
        <ele>571.048</ele>
        <time>2021-01-20T15:51:07Z</time>
      </trkpt>
      <trkpt lat="42.431700" lon="-2.819840">
        <ele>553.028</ele>
        <time>2021-01-20T15:51:27Z</time>
      </trkpt>
      <trkpt lat="42.432470" lon="-2.821100">
        <ele>546.011</ele>
        <time>2021-01-20T15:51:47Z</time>
      </trkpt>
      <trkpt lat="42.433160" lon="-2.820740">
        <ele>544.054</ele>
        <time>2021-01-20T15:52:07Z</time>
      </trkpt>
      <trkpt lat="42.433330" lon="-2.820850">
        <ele>544.013</ele>
        <time>2021-01-20T15:52:27Z</time>
      </trkpt>
      <trkpt lat="42.433680" lon="-2.823160">
        <ele>546.067</ele>
        <time>2021-01-20T15:52:47Z</time>
      </trkpt>
      <trkpt lat="42.434230" lon="-2.831130">
        <ele>551.041</ele>
        <time>2021-01-20T15:53:07Z</time>
      </trkpt>
      <trkpt lat="42.434140" lon="-2.832870">
        <ele>552.081</ele>
        <time>2021-01-20T15:53:27Z</time>
      </trkpt>
      <trkpt lat="42.433590" lon="-2.834240">
        <ele>554.009</ele>
        <time>2021-01-20T15:53:47Z</time>
      </trkpt>
      <trkpt lat="42.433530" lon="-2.835770">
        <ele>556.007</ele>
        <time>2021-01-20T15:54:07Z</time>
      </trkpt>
      <trkpt lat="42.433670" lon="-2.838910">
        <ele>559.057</ele>
        <time>2021-01-20T15:54:27Z</time>
      </trkpt>
      <trkpt lat="42.434040" lon="-2.840140">
        <ele>558.084</ele>
        <time>2021-01-20T15:54:47Z</time>
      </trkpt>
      <trkpt lat="42.433990" lon="-2.841060">
        <ele>558.064</ele>
        <time>2021-01-20T15:55:07Z</time>
      </trkpt>
      <trkpt lat="42.433450" lon="-2.841930">
        <ele>559.077</ele>
        <time>2021-01-20T15:55:27Z</time>
      </trkpt>
      <trkpt lat="42.432680" lon="-2.846240">
        <ele>564.050</ele>
        <time>2021-01-20T15:55:47Z</time>
      </trkpt>
      <trkpt lat="42.432970" lon="-2.848110">
        <ele>565.089</ele>
        <time>2021-01-20T15:56:07Z</time>
      </trkpt>
      <trkpt lat="42.432830" lon="-2.848690">
        <ele>565.013</ele>
        <time>2021-01-20T15:56:27Z</time>
      </trkpt>
      <trkpt lat="42.432370" lon="-2.849260">
        <ele>566.058</ele>
        <time>2021-01-20T15:56:47Z</time>
      </trkpt>
      <trkpt lat="42.431330" lon="-2.852910">
        <ele>574.052</ele>
        <time>2021-01-20T15:57:07Z</time>
      </trkpt>
      <trkpt lat="42.427490" lon="-2.860020">
        <ele>590.017</ele>
        <time>2021-01-20T15:57:27Z</time>
      </trkpt>
      <trkpt lat="42.426940" lon="-2.865300">
        <ele>604.007</ele>
        <time>2021-01-20T15:57:47Z</time>
      </trkpt>
      <trkpt lat="42.425330" lon="-2.870970">
        <ele>629.028</ele>
        <time>2021-01-20T15:58:07Z</time>
      </trkpt>
      <trkpt lat="42.425060" lon="-2.873190">
        <ele>644.035</ele>
        <time>2021-01-20T15:58:27Z</time>
      </trkpt>
      <trkpt lat="42.424150" lon="-2.876720">
        <ele>670.025</ele>
        <time>2021-01-20T15:58:47Z</time>
      </trkpt>
      <trkpt lat="42.418710" lon="-2.885750">
        <ele>714.048</ele>
        <time>2021-01-20T15:59:07Z</time>
      </trkpt>
      <trkpt lat="42.417770" lon="-2.886730">
        <ele>720.041</ele>
        <time>2021-01-20T15:59:27Z</time>
      </trkpt>
      <trkpt lat="42.415690" lon="-2.890180">
        <ele>724.040</ele>
        <time>2021-01-20T15:59:47Z</time>
      </trkpt>
      <trkpt lat="42.415710" lon="-2.892510">
        <ele>723.024</ele>
        <time>2021-01-20T16:00:07Z</time>
      </trkpt>
      <trkpt lat="42.414700" lon="-2.892560">
        <ele>731.013</ele>
        <time>2021-01-20T16:00:27Z</time>
      </trkpt>
      <trkpt lat="42.414440" lon="-2.892780">
        <ele>733.043</ele>
        <time>2021-01-20T16:00:47Z</time>
      </trkpt>
      <trkpt lat="42.414400" lon="-2.893600">
        <ele>734.007</ele>
        <time>2021-01-20T16:01:07Z</time>
      </trkpt>
      <trkpt lat="42.413500" lon="-2.894980">
        <ele>741.007</ele>
        <time>2021-01-20T16:01:27Z</time>
      </trkpt>
      <trkpt lat="42.412970" lon="-2.895490">
        <ele>742.034</ele>
        <time>2021-01-20T16:01:47Z</time>
      </trkpt>
      <trkpt lat="42.412790" lon="-2.896120">
        <ele>745.091</ele>
        <time>2021-01-20T16:02:07Z</time>
      </trkpt>
      <trkpt lat="42.412890" lon="-2.896160">
        <ele>745.081</ele>
        <time>2021-01-20T16:02:27Z</time>
      </trkpt>
      <trkpt lat="42.413700" lon="-2.896420">
        <ele>738.044</ele>
        <time>2021-01-20T16:02:47Z</time>
      </trkpt>
      <trkpt lat="42.414320" lon="-2.897160">
        <ele>727.067</ele>
        <time>2021-01-20T16:03:07Z</time>
      </trkpt>
      <trkpt lat="42.414740" lon="-2.898250">
        <ele>725.096</ele>
        <time>2021-01-20T16:03:27Z</time>
      </trkpt>
      <trkpt lat="42.415300" lon="-2.898920">
        <ele>724.070</ele>
        <time>2021-01-20T16:03:47Z</time>
      </trkpt>
      <trkpt lat="42.416250" lon="-2.905630">
        <ele>720.066</ele>
        <time>2021-01-20T16:04:07Z</time>
      </trkpt>
      <trkpt lat="42.418130" lon="-2.911010">
        <ele>712.029</ele>
        <time>2021-01-20T16:04:27Z</time>
      </trkpt>
      <trkpt lat="42.423150" lon="-2.919330">
        <ele>716.021</ele>
        <time>2021-01-20T16:04:47Z</time>
      </trkpt>
      <trkpt lat="42.435620" lon="-2.933330">
        <ele>622.007</ele>
        <time>2021-01-20T16:05:07Z</time>
      </trkpt>
      <trkpt lat="42.436460" lon="-2.934520">
        <ele>627.089</ele>
        <time>2021-01-20T16:05:27Z</time>
      </trkpt>
      <trkpt lat="42.437650" lon="-2.938740">
        <ele>632.036</ele>
        <time>2021-01-20T16:05:47Z</time>
      </trkpt>
      <trkpt lat="42.438120" lon="-2.939010">
        <ele>631.086</ele>
        <time>2021-01-20T16:06:07Z</time>
      </trkpt>
      <trkpt lat="42.438390" lon="-2.939780">
        <ele>633.049</ele>
        <time>2021-01-20T16:06:27Z</time>
      </trkpt>
      <trkpt lat="42.439100" lon="-2.943490">
        <ele>637.012</ele>
        <time>2021-01-20T16:06:47Z</time>
      </trkpt>
      <trkpt lat="42.439310" lon="-2.943720">
        <ele>637.021</ele>
        <time>2021-01-20T16:07:07Z</time>
      </trkpt>
      <trkpt lat="42.439330" lon="-2.944740">
        <ele>640.095</ele>
        <time>2021-01-20T16:07:27Z</time>
      </trkpt>
      <trkpt lat="42.440340" lon="-2.949200">
        <ele>647.072</ele>
        <time>2021-01-20T16:07:47Z</time>
      </trkpt>
      <trkpt lat="42.440740" lon="-2.952370">
        <ele>647.013</ele>
        <time>2021-01-20T16:08:07Z</time>
      </trkpt>
      <trkpt lat="42.440760" lon="-2.953430">
        <ele>648.014</ele>
        <time>2021-01-20T16:08:27Z</time>
      </trkpt>
      <trkpt lat="42.440980" lon="-2.954130">
        <ele>646.007</ele>
        <time>2021-01-20T16:08:47Z</time>
      </trkpt>
      <trkpt lat="42.441210" lon="-2.954220">
        <ele>646.070</ele>
        <time>2021-01-20T16:09:07Z</time>
      </trkpt>
      <trkpt lat="42.442100" lon="-2.953780">
        <ele>643.017</ele>
        <time>2021-01-20T16:09:27Z</time>
      </trkpt>
      <trkpt lat="42.442080" lon="-2.953410">
        <ele>647.027</ele>
        <time>2021-01-20T16:09:47Z</time>
      </trkpt>
      <trkpt lat="42.441810" lon="-2.953050">
        <ele>647.020</ele>
        <time>2021-01-20T16:10:07Z</time>
      </trkpt>
      <trkpt lat="42.440990" lon="-2.953480">
        <ele>649.073</ele>
        <time>2021-01-20T16:10:27Z</time>
      </trkpt>
      <trkpt lat="42.440910" lon="-2.953500">
        <ele>648.072</ele>
        <time>2021-01-20T16:10:47Z</time>
      </trkpt>
      <trkpt lat="42.441040" lon="-2.955830">
        <ele>641.076</ele>
        <time>2021-01-20T16:11:07Z</time>
      </trkpt>
      <trkpt lat="42.441180" lon="-2.956950">
        <ele>643.029</ele>
        <time>2021-01-20T16:11:27Z</time>
      </trkpt>
      <trkpt lat="42.441040" lon="-2.957280">
        <ele>643.000</ele>
        <time>2021-01-20T16:11:47Z</time>
      </trkpt>
      <trkpt lat="42.441160" lon="-2.958510">
        <ele>642.020</ele>
        <time>2021-01-20T16:12:07Z</time>
      </trkpt>
      <trkpt lat="42.442390" lon="-2.962210">
        <ele>630.007</ele>
        <time>2021-01-20T16:12:27Z</time>
      </trkpt>
      <trkpt lat="42.442770" lon="-2.961850">
        <ele>630.075</ele>
        <time>2021-01-20T16:12:47Z</time>
      </trkpt>
      <trkpt lat="42.442650" lon="-2.962490">
        <ele>630.022</ele>
        <time>2021-01-20T16:13:07Z</time>
      </trkpt>
      <trkpt lat="42.442950" lon="-2.963220">
        <ele>630.072</ele>
        <time>2021-01-20T16:13:27Z</time>
      </trkpt>
      <trkpt lat="42.444200" lon="-2.965070">
        <ele>630.025</ele>
        <time>2021-01-20T16:13:47Z</time>
      </trkpt>
      <trkpt lat="42.444720" lon="-2.966350">
        <ele>628.078</ele>
        <time>2021-01-20T16:14:07Z</time>
      </trkpt>
      <trkpt lat="42.445890" lon="-2.971630">
        <ele>624.057</ele>
        <time>2021-01-20T16:14:27Z</time>
      </trkpt>
      <trkpt lat="42.445810" lon="-2.971860">
        <ele>624.031</ele>
        <time>2021-01-20T16:14:47Z</time>
      </trkpt>
      <trkpt lat="42.445470" lon="-2.971980">
        <ele>624.019</ele>
        <time>2021-01-20T16:15:07Z</time>
      </trkpt>
      <trkpt lat="42.445380" lon="-2.972230">
        <ele>624.009</ele>
        <time>2021-01-20T16:15:27Z</time>
      </trkpt>
      <trkpt lat="42.448070" lon="-2.981100">
        <ele>632.019</ele>
        <time>2021-01-20T16:15:47Z</time>
      </trkpt>
      <trkpt lat="42.448540" lon="-2.983460">
        <ele>633.007</ele>
        <time>2021-01-20T16:16:07Z</time>
      </trkpt>
      <trkpt lat="42.449350" lon="-2.985930">
        <ele>637.034</ele>
        <time>2021-01-20T16:16:27Z</time>
      </trkpt>
      <trkpt lat="42.449600" lon="-2.985890">
        <ele>638.091</ele>
        <time>2021-01-20T16:16:47Z</time>
      </trkpt>
      <trkpt lat="42.449990" lon="-2.987160">
        <ele>641.021</ele>
        <time>2021-01-20T16:17:07Z</time>
      </trkpt>
      <trkpt lat="42.451390" lon="-2.997000">
        <ele>664.094</ele>
        <time>2021-01-20T16:17:27Z</time>
      </trkpt>
      <trkpt lat="42.451980" lon="-3.002060">
        <ele>657.017</ele>
        <time>2021-01-20T16:17:47Z</time>
      </trkpt>
      <trkpt lat="42.451830" lon="-3.002400">
        <ele>657.056</ele>
        <time>2021-01-20T16:18:07Z</time>
      </trkpt>
      <trkpt lat="42.450420" lon="-3.003620">
        <ele>665.080</ele>
        <time>2021-01-20T16:18:27Z</time>
      </trkpt>
      <trkpt lat="42.450310" lon="-3.003890">
        <ele>666.094</ele>
        <time>2021-01-20T16:18:47Z</time>
      </trkpt>
      <trkpt lat="42.450030" lon="-3.012620">
        <ele>691.057</ele>
        <time>2021-01-20T16:19:07Z</time>
      </trkpt>
      <trkpt lat="42.448430" lon="-3.017870">
        <ele>710.022</ele>
        <time>2021-01-20T16:19:27Z</time>
      </trkpt>
      <trkpt lat="42.452730" lon="-3.017410">
        <ele>681.007</ele>
        <time>2021-01-20T16:19:47Z</time>
      </trkpt>
      <trkpt lat="42.452840" lon="-3.017620">
        <ele>681.022</ele>
        <time>2021-01-20T16:20:07Z</time>
      </trkpt>
      <trkpt lat="42.451490" lon="-3.024660">
        <ele>719.089</ele>
        <time>2021-01-20T16:20:27Z</time>
      </trkpt>
      <trkpt lat="42.450950" lon="-3.024900">
        <ele>722.089</ele>
        <time>2021-01-20T16:20:47Z</time>
      </trkpt>
      <trkpt lat="42.450670" lon="-3.025460">
        <ele>727.012</ele>
        <time>2021-01-20T16:21:07Z</time>
      </trkpt>
      <trkpt lat="42.450870" lon="-3.025060">
        <ele>722.085</ele>
        <time>2021-01-20T16:21:27Z</time>
      </trkpt>
      <trkpt lat="42.451430" lon="-3.024910">
        <ele>720.024</ele>
        <time>2021-01-20T16:21:47Z</time>
      </trkpt>
      <trkpt lat="42.450590" lon="-3.026480">
        <ele>730.018</ele>
        <time>2021-01-20T16:22:07Z</time>
      </trkpt>
      <trkpt lat="42.450550" lon="-3.027020">
        <ele>730.091</ele>
        <time>2021-01-20T16:22:27Z</time>
      </trkpt>
      <trkpt lat="42.449220" lon="-3.030130">
        <ele>729.081</ele>
        <time>2021-01-20T16:22:47Z</time>
      </trkpt>
      <trkpt lat="42.448900" lon="-3.029900">
        <ele>730.019</ele>
        <time>2021-01-20T16:23:07Z</time>
      </trkpt>
      <trkpt lat="42.449000" lon="-3.030300">
        <ele>728.007</ele>
        <time>2021-01-20T16:23:27Z</time>
      </trkpt>
      <trkpt lat="42.448630" lon="-3.032890">
        <ele>697.052</ele>
        <time>2021-01-20T16:23:47Z</time>
      </trkpt>
      <trkpt lat="42.449090" lon="-3.033140">
        <ele>695.069</ele>
        <time>2021-01-20T16:24:07Z</time>
      </trkpt>
      <trkpt lat="42.450860" lon="-3.036900">
        <ele>690.099</ele>
        <time>2021-01-20T16:24:27Z</time>
      </trkpt>
      <trkpt lat="42.450810" lon="-3.037210">
        <ele>692.062</ele>
        <time>2021-01-20T16:24:47Z</time>
      </trkpt>
      <trkpt lat="42.448970" lon="-3.039050">
        <ele>704.015</ele>
        <time>2021-01-20T16:25:07Z</time>
      </trkpt>
      <trkpt lat="42.446940" lon="-3.042950">
        <ele>730.054</ele>
        <time>2021-01-20T16:25:27Z</time>
      </trkpt>
      <trkpt lat="42.445220" lon="-3.045480">
        <ele>740.058</ele>
        <time>2021-01-20T16:25:47Z</time>
      </trkpt>
      <trkpt lat="42.444070" lon="-3.049730">
        <ele>734.046</ele>
        <time>2021-01-20T16:26:07Z</time>
      </trkpt>
      <trkpt lat="42.443050" lon="-3.052560">
        <ele>724.088</ele>
        <time>2021-01-20T16:26:27Z</time>
      </trkpt>
      <trkpt lat="42.440220" lon="-3.057380">
        <ele>728.016</ele>
        <time>2021-01-20T16:26:47Z</time>
      </trkpt>
      <trkpt lat="42.438900" lon="-3.060190">
        <ele>732.007</ele>
        <time>2021-01-20T16:27:07Z</time>
      </trkpt>
      <trkpt lat="42.438140" lon="-3.062220">
        <ele>733.087</ele>
        <time>2021-01-20T16:27:27Z</time>
      </trkpt>
      <trkpt lat="42.438720" lon="-3.062850">
        <ele>737.064</ele>
        <time>2021-01-20T16:27:47Z</time>
      </trkpt>
      <trkpt lat="42.438840" lon="-3.063240">
        <ele>738.084</ele>
        <time>2021-01-20T16:28:07Z</time>
      </trkpt>
      <trkpt lat="42.437840" lon="-3.066330">
        <ele>743.077</ele>
        <time>2021-01-20T16:28:27Z</time>
      </trkpt>
      <trkpt lat="42.437200" lon="-3.069010">
        <ele>740.070</ele>
        <time>2021-01-20T16:28:47Z</time>
      </trkpt>
      <trkpt lat="42.437210" lon="-3.072260">
        <ele>751.039</ele>
        <time>2021-01-20T16:29:07Z</time>
      </trkpt>
      <trkpt lat="42.437630" lon="-3.079480">
        <ele>753.063</ele>
        <time>2021-01-20T16:29:27Z</time>
      </trkpt>
      <trkpt lat="42.437020" lon="-3.080140">
        <ele>759.059</ele>
        <time>2021-01-20T16:29:47Z</time>
      </trkpt>
      <trkpt lat="42.437130" lon="-3.081680">
        <ele>765.003</ele>
        <time>2021-01-20T16:30:07Z</time>
      </trkpt>
      <trkpt lat="42.436560" lon="-3.084410">
        <ele>771.023</ele>
        <time>2021-01-20T16:30:27Z</time>
      </trkpt>
      <trkpt lat="42.436380" lon="-3.086300">
        <ele>763.007</ele>
        <time>2021-01-20T16:30:47Z</time>
      </trkpt>
      <trkpt lat="42.436600" lon="-3.086510">
        <ele>762.018</ele>
        <time>2021-01-20T16:31:07Z</time>
      </trkpt>
      <trkpt lat="42.435310" lon="-3.088500">
        <ele>755.095</ele>
        <time>2021-01-20T16:31:27Z</time>
      </trkpt>
      <trkpt lat="42.434040" lon="-3.093180">
        <ele>764.055</ele>
        <time>2021-01-20T16:31:47Z</time>
      </trkpt>
      <trkpt lat="42.433480" lon="-3.094220">
        <ele>765.088</ele>
        <time>2021-01-20T16:32:07Z</time>
      </trkpt>
      <trkpt lat="42.431600" lon="-3.095970">
        <ele>778.081</ele>
        <time>2021-01-20T16:32:27Z</time>
      </trkpt>
      <trkpt lat="42.430530" lon="-3.097600">
        <ele>782.090</ele>
        <time>2021-01-20T16:32:47Z</time>
      </trkpt>
      <trkpt lat="42.429800" lon="-3.098270">
        <ele>787.074</ele>
        <time>2021-01-20T16:33:07Z</time>
      </trkpt>
      <trkpt lat="42.428140" lon="-3.098680">
        <ele>789.061</ele>
        <time>2021-01-20T16:33:27Z</time>
      </trkpt>
      <trkpt lat="42.427570" lon="-3.099080">
        <ele>792.021</ele>
        <time>2021-01-20T16:33:47Z</time>
      </trkpt>
      <trkpt lat="42.426040" lon="-3.101530">
        <ele>803.013</ele>
        <time>2021-01-20T16:34:07Z</time>
      </trkpt>
      <trkpt lat="42.425950" lon="-3.102350">
        <ele>804.007</ele>
        <time>2021-01-20T16:34:27Z</time>
      </trkpt>
      <trkpt lat="42.426330" lon="-3.103700">
        <ele>803.029</ele>
        <time>2021-01-20T16:34:47Z</time>
      </trkpt>
      <trkpt lat="42.426840" lon="-3.104440">
        <ele>793.016</ele>
        <time>2021-01-20T16:35:07Z</time>
      </trkpt>
      <trkpt lat="42.427300" lon="-3.106260">
        <ele>789.066</ele>
        <time>2021-01-20T16:35:27Z</time>
      </trkpt>
      <trkpt lat="42.426980" lon="-3.108460">
        <ele>778.029</ele>
        <time>2021-01-20T16:35:47Z</time>
      </trkpt>
      <trkpt lat="42.427080" lon="-3.109160">
        <ele>772.082</ele>
        <time>2021-01-20T16:36:07Z</time>
      </trkpt>
      <trkpt lat="42.428140" lon="-3.110740">
        <ele>758.081</ele>
        <time>2021-01-20T16:36:27Z</time>
      </trkpt>
      <trkpt lat="42.429850" lon="-3.111880">
        <ele>749.085</ele>
        <time>2021-01-20T16:36:47Z</time>
      </trkpt>
      <trkpt lat="42.431090" lon="-3.113330">
        <ele>757.062</ele>
        <time>2021-01-20T16:37:07Z</time>
      </trkpt>
      <trkpt lat="42.431180" lon="-3.113850">
        <ele>760.083</ele>
        <time>2021-01-20T16:37:27Z</time>
      </trkpt>
      <trkpt lat="42.430450" lon="-3.122100">
        <ele>783.011</ele>
        <time>2021-01-20T16:37:47Z</time>
      </trkpt>
      <trkpt lat="42.430480" lon="-3.123420">
        <ele>780.007</ele>
        <time>2021-01-20T16:38:07Z</time>
      </trkpt>
      <trkpt lat="42.431070" lon="-3.127850">
        <ele>779.069</ele>
        <time>2021-01-20T16:38:27Z</time>
      </trkpt>
      <trkpt lat="42.431030" lon="-3.129400">
        <ele>788.016</ele>
        <time>2021-01-20T16:38:47Z</time>
      </trkpt>
      <trkpt lat="42.430550" lon="-3.130860">
        <ele>792.066</ele>
        <time>2021-01-20T16:39:07Z</time>
      </trkpt>
      <trkpt lat="42.428880" lon="-3.133300">
        <ele>781.089</ele>
        <time>2021-01-20T16:39:27Z</time>
      </trkpt>
      <trkpt lat="42.428420" lon="-3.135180">
        <ele>781.042</ele>
        <time>2021-01-20T16:39:47Z</time>
      </trkpt>
      <trkpt lat="42.428480" lon="-3.134980">
        <ele>779.041</ele>
        <time>2021-01-20T16:40:07Z</time>
      </trkpt>
      <trkpt lat="42.428670" lon="-3.134980">
        <ele>779.095</ele>
        <time>2021-01-20T16:40:27Z</time>
      </trkpt>
      <trkpt lat="42.428800" lon="-3.135080">
        <ele>779.049</ele>
        <time>2021-01-20T16:40:47Z</time>
      </trkpt>
      <trkpt lat="42.431080" lon="-3.134280">
        <ele>773.002</ele>
        <time>2021-01-20T16:41:07Z</time>
      </trkpt>
      <trkpt lat="42.430990" lon="-3.133890">
        <ele>774.022</ele>
        <time>2021-01-20T16:41:27Z</time>
      </trkpt>
    </trkseg>
  </trk>
</gpx>
